<?xml version="1.0" encoding="UTF-8" standalone="no" ?><gpx xmlns="http://www.topografix.com/GPX/1/1" xmlns:gpxx="http://www.garmin.com/xmlschemas/GpxExtensions/v3" xmlns:wptx1="http://www.garmin.com/xmlschemas/WaypointExtension/v1" xmlns:gpxtpx="http://www.garmin.com/xmlschemas/TrackPointExtension/v1" creator="GuideVTT.com" version="1.1" xmlns:xsi="http://www.w3.org/2001/XMLSchema-instance" xsi:schemaLocation="http://www.topografix.com/GPX/1/1 http://www.topografix.com/GPX/1/1/gpx.xsd http://www.garmin.com/xmlschemas/GpxExtensions/v3 http://www8.garmin.com/xmlschemas/GpxExtensionsv3.xsd http://www.garmin.com/xmlschemas/WaypointExtension/v1 http://www8.garmin.com/xmlschemas/WaypointExtensionv1.xsd http://www.garmin.com/xmlschemas/TrackPointExtension/v1 http://www.garmin.com/xmlschemas/TrackPointExtensionv1.xsd">
<metadata><link href="http://www.garmin.com"><text>Garmin International</text></link><time>2013-06-22T15:13:50Z</time></metadata>
<trk><name>telepherique_saleve.gpx</name><extensions><gpxx:TrackExtension><gpxx:DisplayColor>Cyan</gpxx:DisplayColor></gpxx:TrackExtension></extensions><trkseg>
<trkpt lat="46.15292190" lon="6.19482717"><ele>1087.388428</ele><time>2007-05-20T07:43:53Z</time></trkpt>
<trkpt lat="46.15316162" lon="6.19473556"><ele>1090.75293</ele><time>2007-05-20T07:44:01Z</time></trkpt>
<trkpt lat="46.15326128" lon="6.19461520"><ele>1094.117676</ele><time>2007-05-20T07:44:06Z</time></trkpt>
<trkpt lat="46.15334493" lon="6.19438335"><ele>1097.482178</ele><time>2007-05-20T07:44:13Z</time></trkpt>
<trkpt lat="46.15336295" lon="6.19431588"><ele>1098.443359</ele><time>2007-05-20T07:44:15Z</time></trkpt>
<trkpt lat="46.15341752" lon="6.19411496"><ele>1102.288818</ele><time>2007-05-20T07:44:21Z</time></trkpt>
<trkpt lat="46.15342632" lon="6.19408177"><ele>1101.80835</ele><time>2007-05-20T07:44:22Z</time></trkpt>
<trkpt lat="46.15342489" lon="6.19387675"><ele>1105.172852</ele><time>2007-05-20T07:44:28Z</time></trkpt>
<trkpt lat="46.15340143" lon="6.19377164"><ele>1107.095459</ele><time>2007-05-20T07:44:31Z</time></trkpt>
<trkpt lat="46.15338064" lon="6.19370610"><ele>1108.056885</ele><time>2007-05-20T07:44:33Z</time></trkpt>
<trkpt lat="46.15337058" lon="6.19354843"><ele>1111.421387</ele><time>2007-05-20T07:44:38Z</time></trkpt>
<trkpt lat="46.15329766" lon="6.19335313"><ele>1114.785889</ele><time>2007-05-20T07:44:44Z</time></trkpt>
<trkpt lat="46.15328643" lon="6.19328692"><ele>1115.747314</ele><time>2007-05-20T07:44:46Z</time></trkpt>
<trkpt lat="46.15327754" lon="6.19322196"><ele>1117.189453</ele><time>2007-05-20T07:44:48Z</time></trkpt>
<trkpt lat="46.15325860" lon="6.19304007"><ele>1119.592773</ele><time>2007-05-20T07:44:54Z</time></trkpt>
<trkpt lat="46.15324887" lon="6.19298123"><ele>1121.515137</ele><time>2007-05-20T07:44:56Z</time></trkpt>
<trkpt lat="46.15309968" lon="6.19260488"><ele>1124.39917</ele><time>2007-05-20T07:45:09Z</time></trkpt>
<trkpt lat="46.15288569" lon="6.19200457"><ele>1126.321777</ele><time>2007-05-20T07:45:28Z</time></trkpt>
<trkpt lat="46.15262736" lon="6.19185738"><ele>1127.283203</ele><time>2007-05-20T07:45:39Z</time></trkpt>
<trkpt lat="46.15256969" lon="6.19223708"><ele>1129.205566</ele><time>2007-05-20T07:45:50Z</time></trkpt>
<trkpt lat="46.15274739" lon="6.19289456"><ele>1131.128418</ele><time>2007-05-20T07:46:08Z</time></trkpt>
<trkpt lat="46.15268662" lon="6.19310712"><ele>1133.051025</ele><time>2007-05-20T07:46:15Z</time></trkpt>
<trkpt lat="46.15246408" lon="6.19351650"><ele>1134.973877</ele><time>2007-05-20T07:46:31Z</time></trkpt>
<trkpt lat="46.15216166" lon="6.19365932"><ele>1138.338379</ele><time>2007-05-20T07:46:44Z</time></trkpt>
<trkpt lat="46.15156545" lon="6.19367265"><ele>1141.702881</ele><time>2007-05-20T07:47:06Z</time></trkpt>
<trkpt lat="46.15111685" lon="6.19375999"><ele>1144.58667</ele><time>2007-05-20T07:47:24Z</time></trkpt>
<trkpt lat="46.15067043" lon="6.19393618"><ele>1146.98999</ele><time>2007-05-20T07:47:43Z</time></trkpt>
<trkpt lat="46.15032543" lon="6.19402218"><ele>1149.874268</ele><time>2007-05-20T07:47:57Z</time></trkpt>
<trkpt lat="46.14985848" lon="6.19394984"><ele>1152.758057</ele><time>2007-05-20T07:48:17Z</time></trkpt>
<trkpt lat="46.14948607" lon="6.19383853"><ele>1155.64209</ele><time>2007-05-20T07:48:34Z</time></trkpt>
<trkpt lat="46.14942119" lon="6.19381724"><ele>1157.564697</ele><time>2007-05-20T07:48:37Z</time></trkpt>
<trkpt lat="46.14898114" lon="6.19361884"><ele>1160.448486</ele><time>2007-05-20T07:48:58Z</time></trkpt>
<trkpt lat="46.14893999" lon="6.19359688"><ele>1161.409912</ele><time>2007-05-20T07:49:00Z</time></trkpt>
<trkpt lat="46.14863455" lon="6.19343142"><ele>1164.293945</ele><time>2007-05-20T07:49:15Z</time></trkpt>
<trkpt lat="46.14832987" lon="6.19327283"><ele>1167.177979</ele><time>2007-05-20T07:49:30Z</time></trkpt>
<trkpt lat="46.14830908" lon="6.19332824"><ele>1166.697266</ele><time>2007-05-20T07:49:40Z</time></trkpt>
<trkpt lat="46.14831076" lon="6.19335758"><ele>1166.697266</ele><time>2007-05-20T07:50:12Z</time></trkpt>
<trkpt lat="46.14832685" lon="6.19340493"><ele>1165.255371</ele><time>2007-05-20T07:50:18Z</time></trkpt>
<trkpt lat="46.14821454" lon="6.19365555"><ele>1161.409912</ele><time>2007-05-20T07:50:25Z</time></trkpt>
<trkpt lat="46.14819123" lon="6.19370819"><ele>1160.448486</ele><time>2007-05-20T07:50:26Z</time></trkpt>
<trkpt lat="46.14787993" lon="6.19400843"><ele>1158.04541</ele><time>2007-05-20T07:50:36Z</time></trkpt>
<trkpt lat="46.14775085" lon="6.19403902"><ele>1158.525879</ele><time>2007-05-20T07:50:42Z</time></trkpt>
<trkpt lat="46.14737668" lon="6.19417624"><ele>1156.603271</ele><time>2007-05-20T07:50:57Z</time></trkpt>
<trkpt lat="46.14703545" lon="6.19407406"><ele>1157.083984</ele><time>2007-05-20T07:51:11Z</time></trkpt>
<trkpt lat="46.14684426" lon="6.19393894"><ele>1157.564697</ele><time>2007-05-20T07:51:26Z</time></trkpt>
<trkpt lat="46.14680872" lon="6.19393467"><ele>1157.083984</ele><time>2007-05-20T07:51:31Z</time></trkpt>
<trkpt lat="46.14666539" lon="6.19395479"><ele>1154.680664</ele><time>2007-05-20T07:51:39Z</time></trkpt>
<trkpt lat="46.14663195" lon="6.19393492"><ele>1155.161377</ele><time>2007-05-20T07:51:41Z</time></trkpt>
<trkpt lat="46.14631972" lon="6.19375798"><ele>1155.64209</ele><time>2007-05-20T07:51:53Z</time></trkpt>
<trkpt lat="46.14609676" lon="6.19343586"><ele>1157.083984</ele><time>2007-05-20T07:52:06Z</time></trkpt>
<trkpt lat="46.14600180" lon="6.19328708"><ele>1159.967773</ele><time>2007-05-20T07:52:15Z</time></trkpt>
<trkpt lat="46.14598989" lon="6.19327778"><ele>1159.967773</ele><time>2007-05-20T07:52:16Z</time></trkpt>
<trkpt lat="46.14583173" lon="6.19297234"><ele>1162.851807</ele><time>2007-05-20T07:52:30Z</time></trkpt>
<trkpt lat="46.14573014" lon="6.19277730"><ele>1166.216553</ele><time>2007-05-20T07:52:41Z</time></trkpt>
<trkpt lat="46.14565428" lon="6.19255719"><ele>1167.658447</ele><time>2007-05-20T07:52:52Z</time></trkpt>
<trkpt lat="46.14563148" lon="6.19249474"><ele>1168.619873</ele><time>2007-05-20T07:52:56Z</time></trkpt>
<trkpt lat="46.14553962" lon="6.19231445"><ele>1170.54248</ele><time>2007-05-20T07:53:08Z</time></trkpt>
<trkpt lat="46.14535463" lon="6.19211135"><ele>1173.906982</ele><time>2007-05-20T07:53:22Z</time></trkpt>
<trkpt lat="46.14525975" lon="6.19204254"><ele>1175.348877</ele><time>2007-05-20T07:53:38Z</time></trkpt>
<trkpt lat="46.14519219" lon="6.19198303"><ele>1177.752197</ele><time>2007-05-20T07:53:53Z</time></trkpt>
<trkpt lat="46.14512706" lon="6.19191765"><ele>1180.155762</ele><time>2007-05-20T07:54:09Z</time></trkpt>
<trkpt lat="46.14504752" lon="6.19185747"><ele>1182.078369</ele><time>2007-05-20T07:54:23Z</time></trkpt>
<trkpt lat="46.14495113" lon="6.19178329"><ele>1183.520264</ele><time>2007-05-20T07:54:40Z</time></trkpt>
<trkpt lat="46.14485566" lon="6.19165479"><ele>1185.442871</ele><time>2007-05-20T07:54:53Z</time></trkpt>
<trkpt lat="46.14470143" lon="6.19154868"><ele>1188.326904</ele><time>2007-05-20T07:55:04Z</time></trkpt>
<trkpt lat="46.14463898" lon="6.19150903"><ele>1191.691406</ele><time>2007-05-20T07:55:10Z</time></trkpt>
<trkpt lat="46.14452759" lon="6.19143376"><ele>1193.614014</ele><time>2007-05-20T07:55:24Z</time></trkpt>
<trkpt lat="46.14448518" lon="6.19140669"><ele>1194.094727</ele><time>2007-05-20T07:55:35Z</time></trkpt>
<trkpt lat="46.14443136" lon="6.19137484"><ele>1195.536621</ele><time>2007-05-20T07:55:46Z</time></trkpt>
<trkpt lat="46.14430220" lon="6.19133435"><ele>1198.420654</ele><time>2007-05-20T07:56:04Z</time></trkpt>
<trkpt lat="46.14423313" lon="6.19131675"><ele>1198.901367</ele><time>2007-05-20T07:56:18Z</time></trkpt>
<trkpt lat="46.14415426" lon="6.19129286"><ele>1198.901367</ele><time>2007-05-20T07:56:39Z</time></trkpt>
<trkpt lat="46.14421519" lon="6.19141792"><ele>1199.862793</ele><time>2007-05-20T07:57:10Z</time></trkpt>
<trkpt lat="46.14420078" lon="6.19138163"><ele>1200.823975</ele><time>2007-05-20T07:57:34Z</time></trkpt>
<trkpt lat="46.14419323" lon="6.19134902"><ele>1201.7854</ele><time>2007-05-20T07:57:36Z</time></trkpt>
<trkpt lat="46.14407388" lon="6.19120033"><ele>1202.265869</ele><time>2007-05-20T07:57:48Z</time></trkpt>
<trkpt lat="46.14405460" lon="6.19119379"><ele>1202.746582</ele><time>2007-05-20T07:57:49Z</time></trkpt>
<trkpt lat="46.14401118" lon="6.19118323"><ele>1202.746582</ele><time>2007-05-20T07:57:52Z</time></trkpt>
<trkpt lat="46.14381814" lon="6.19125506"><ele>1203.227295</ele><time>2007-05-20T07:58:03Z</time></trkpt>
<trkpt lat="46.14365067" lon="6.19123997"><ele>1204.188721</ele><time>2007-05-20T07:58:11Z</time></trkpt>
<trkpt lat="46.14346736" lon="6.19122002"><ele>1205.149902</ele><time>2007-05-20T07:58:20Z</time></trkpt>
<trkpt lat="46.14321498" lon="6.19113830"><ele>1206.111084</ele><time>2007-05-20T07:58:32Z</time></trkpt>
<trkpt lat="46.14302295" lon="6.19100746"><ele>1206.591797</ele><time>2007-05-20T07:58:42Z</time></trkpt>
<trkpt lat="46.14282137" lon="6.19094543"><ele>1207.07251</ele><time>2007-05-20T07:58:51Z</time></trkpt>
<trkpt lat="46.14262808" lon="6.19106948"><ele>1207.553223</ele><time>2007-05-20T07:59:02Z</time></trkpt>
<trkpt lat="46.14257502" lon="6.19108466"><ele>1207.553223</ele><time>2007-05-20T07:59:06Z</time></trkpt>
<trkpt lat="46.14250747" lon="6.19105213"><ele>1208.033936</ele><time>2007-05-20T07:59:10Z</time></trkpt>
<trkpt lat="46.14229666" lon="6.19094283"><ele>1208.514404</ele><time>2007-05-20T07:59:23Z</time></trkpt>
<trkpt lat="46.14226280" lon="6.19093554"><ele>1208.995117</ele><time>2007-05-20T07:59:25Z</time></trkpt>
<trkpt lat="46.14194185" lon="6.19091936"><ele>1208.995117</ele><time>2007-05-20T07:59:39Z</time></trkpt>
<trkpt lat="46.14163608" lon="6.19076857"><ele>1209.956299</ele><time>2007-05-20T07:59:50Z</time></trkpt>
<trkpt lat="46.14145160" lon="6.19053916"><ele>1209.956299</ele><time>2007-05-20T07:59:59Z</time></trkpt>
<trkpt lat="46.14133894" lon="6.19043078"><ele>1209.956299</ele><time>2007-05-20T08:00:04Z</time></trkpt>
<trkpt lat="46.14129569" lon="6.19037102"><ele>1209.956299</ele><time>2007-05-20T08:00:06Z</time></trkpt>
<trkpt lat="46.14112110" lon="6.19030698"><ele>1208.995117</ele><time>2007-05-20T08:00:13Z</time></trkpt>
<trkpt lat="46.14080166" lon="6.19031922"><ele>1208.514404</ele><time>2007-05-20T08:00:24Z</time></trkpt>
<trkpt lat="46.14055079" lon="6.19023213"><ele>1210.437012</ele><time>2007-05-20T08:00:35Z</time></trkpt>
<trkpt lat="46.14026606" lon="6.19009576"><ele>1208.995117</ele><time>2007-05-20T08:00:46Z</time></trkpt>
<trkpt lat="46.13994562" lon="6.18988328"><ele>1208.033936</ele><time>2007-05-20T08:00:57Z</time></trkpt>
<trkpt lat="46.13978569" lon="6.18955404"><ele>1208.033936</ele><time>2007-05-20T08:01:07Z</time></trkpt>
<trkpt lat="46.13971428" lon="6.18946418"><ele>1207.553223</ele><time>2007-05-20T08:01:20Z</time></trkpt>
<trkpt lat="46.13965318" lon="6.18940568"><ele>1208.514404</ele><time>2007-05-20T08:01:59Z</time></trkpt>
<trkpt lat="46.13969685" lon="6.18943837"><ele>1208.514404</ele><time>2007-05-20T08:02:20Z</time></trkpt>
<trkpt lat="46.13970523" lon="6.18941909"><ele>1208.514404</ele><time>2007-05-20T08:02:31Z</time></trkpt>
<trkpt lat="46.13948998" lon="6.18921599"><ele>1209.956299</ele><time>2007-05-20T08:02:43Z</time></trkpt>
<trkpt lat="46.13923157" lon="6.18896479"><ele>1209.956299</ele><time>2007-05-20T08:02:55Z</time></trkpt>
<trkpt lat="46.13889084" lon="6.18874342"><ele>1210.917725</ele><time>2007-05-20T08:03:12Z</time></trkpt>
<trkpt lat="46.13854542" lon="6.18866237"><ele>1211.87915</ele><time>2007-05-20T08:03:28Z</time></trkpt>
<trkpt lat="46.13822808" lon="6.18850638"><ele>1211.87915</ele><time>2007-05-20T08:03:40Z</time></trkpt>
<trkpt lat="46.13797839" lon="6.18809542"><ele>1212.359863</ele><time>2007-05-20T08:03:57Z</time></trkpt>
<trkpt lat="46.13786205" lon="6.18803314"><ele>1211.87915</ele><time>2007-05-20T08:04:03Z</time></trkpt>
<trkpt lat="46.13779415" lon="6.18787455"><ele>1212.359863</ele><time>2007-05-20T08:04:09Z</time></trkpt>
<trkpt lat="46.13744362" lon="6.18762838"><ele>1214.763184</ele><time>2007-05-20T08:04:27Z</time></trkpt>
<trkpt lat="46.13728018" lon="6.18756937"><ele>1215.724609</ele><time>2007-05-20T08:04:35Z</time></trkpt>
<trkpt lat="46.13705378" lon="6.18733669"><ele>1217.646973</ele><time>2007-05-20T08:04:50Z</time></trkpt>
<trkpt lat="46.13678883" lon="6.18711079"><ele>1219.569824</ele><time>2007-05-20T08:05:08Z</time></trkpt>
<trkpt lat="46.13665463" lon="6.18696244"><ele>1222.934326</ele><time>2007-05-20T08:05:20Z</time></trkpt>
<trkpt lat="46.13653343" lon="6.18684283"><ele>1223.895508</ele><time>2007-05-20T08:05:29Z</time></trkpt>
<trkpt lat="46.13640175" lon="6.18674509"><ele>1222.934326</ele><time>2007-05-20T08:05:36Z</time></trkpt>
<trkpt lat="46.13627166" lon="6.18664702"><ele>1223.415039</ele><time>2007-05-20T08:05:40Z</time></trkpt>
<trkpt lat="46.13621375" lon="6.18657712"><ele>1223.415039</ele><time>2007-05-20T08:05:44Z</time></trkpt>
<trkpt lat="46.13607637" lon="6.18651836"><ele>1223.415039</ele><time>2007-05-20T08:05:52Z</time></trkpt>
<trkpt lat="46.13603957" lon="6.18649246"><ele>1223.895508</ele><time>2007-05-20T08:05:54Z</time></trkpt>
<trkpt lat="46.13589917" lon="6.18643798"><ele>1223.895508</ele><time>2007-05-20T08:05:59Z</time></trkpt>
<trkpt lat="46.13554370" lon="6.18617965"><ele>1223.895508</ele><time>2007-05-20T08:06:11Z</time></trkpt>
<trkpt lat="46.13535183" lon="6.18583063"><ele>1225.818115</ele><time>2007-05-20T08:06:26Z</time></trkpt>
<trkpt lat="46.13506358" lon="6.18557615"><ele>1228.22168</ele><time>2007-05-20T08:06:42Z</time></trkpt>
<trkpt lat="46.13479754" lon="6.18531103"><ele>1228.22168</ele><time>2007-05-20T08:06:55Z</time></trkpt>
<trkpt lat="46.13462395" lon="6.18517810"><ele>1229.182861</ele><time>2007-05-20T08:07:06Z</time></trkpt>
<trkpt lat="46.13455572" lon="6.18516234"><ele>1230.144287</ele><time>2007-05-20T08:07:13Z</time></trkpt>
<trkpt lat="46.13447350" lon="6.18515647"><ele>1230.625</ele><time>2007-05-20T08:07:18Z</time></trkpt>
<trkpt lat="46.13426118" lon="6.18510584"><ele>1233.028076</ele><time>2007-05-20T08:07:30Z</time></trkpt>
<trkpt lat="46.13399137" lon="6.18496033"><ele>1233.508789</ele><time>2007-05-20T08:07:43Z</time></trkpt>
<trkpt lat="46.13380118" lon="6.18485816"><ele>1233.989502</ele><time>2007-05-20T08:07:50Z</time></trkpt>
<trkpt lat="46.13373538" lon="6.18482094"><ele>1233.028076</ele><time>2007-05-20T08:07:52Z</time></trkpt>
<trkpt lat="46.13332853" lon="6.18460377"><ele>1232.547607</ele><time>2007-05-20T08:08:05Z</time></trkpt>
<trkpt lat="46.13300784" lon="6.18434653"><ele>1233.028076</ele><time>2007-05-20T08:08:17Z</time></trkpt>
<trkpt lat="46.13268714" lon="6.18413455"><ele>1234.950928</ele><time>2007-05-20T08:08:31Z</time></trkpt>
<trkpt lat="46.13236637" lon="6.18391427"><ele>1238.796143</ele><time>2007-05-20T08:08:46Z</time></trkpt>
<trkpt lat="46.13194166" lon="6.18356818"><ele>1241.199219</ele><time>2007-05-20T08:09:09Z</time></trkpt>
<trkpt lat="46.13169037" lon="6.18306602"><ele>1241.199219</ele><time>2007-05-20T08:09:26Z</time></trkpt>
<trkpt lat="46.13152692" lon="6.18276117"><ele>1243.602539</ele><time>2007-05-20T08:09:38Z</time></trkpt>
<trkpt lat="46.13126054" lon="6.18230235"><ele>1243.602539</ele><time>2007-05-20T08:09:56Z</time></trkpt>
<trkpt lat="46.13105108" lon="6.18176389"><ele>1241.679932</ele><time>2007-05-20T08:10:14Z</time></trkpt>
<trkpt lat="46.13107396" lon="6.18148704"><ele>1238.31543</ele><time>2007-05-20T08:10:19Z</time></trkpt>
<trkpt lat="46.13105745" lon="6.18088463"><ele>1234.950928</ele><time>2007-05-20T08:10:29Z</time></trkpt>
<trkpt lat="46.13101076" lon="6.18064969"><ele>1233.989502</ele><time>2007-05-20T08:10:33Z</time></trkpt>
<trkpt lat="46.13075813" lon="6.18032807"><ele>1231.586182</ele><time>2007-05-20T08:10:42Z</time></trkpt>
<trkpt lat="46.13072569" lon="6.18024987"><ele>1230.625</ele><time>2007-05-20T08:10:44Z</time></trkpt>
<trkpt lat="46.13066878" lon="6.17964017"><ele>1232.066895</ele><time>2007-05-20T08:10:59Z</time></trkpt>
<trkpt lat="46.13066476" lon="6.17958695"><ele>1232.066895</ele><time>2007-05-20T08:11:04Z</time></trkpt>
<trkpt lat="46.13063693" lon="6.17954906"><ele>1231.586182</ele><time>2007-05-20T08:11:16Z</time></trkpt>
<trkpt lat="46.13065076" lon="6.17952215"><ele>1232.066895</ele><time>2007-05-20T08:11:20Z</time></trkpt>
<trkpt lat="46.13063425" lon="6.17940816"><ele>1232.066895</ele><time>2007-05-20T08:11:25Z</time></trkpt>
<trkpt lat="46.13055060" lon="6.17872336"><ele>1231.105713</ele><time>2007-05-20T08:11:42Z</time></trkpt>
<trkpt lat="46.13056778" lon="6.17853276"><ele>1229.663574</ele><time>2007-05-20T08:11:45Z</time></trkpt>
<trkpt lat="46.13054506" lon="6.17820284"><ele>1232.066895</ele><time>2007-05-20T08:11:51Z</time></trkpt>
<trkpt lat="46.13059636" lon="6.17757185"><ele>1233.508789</ele><time>2007-05-20T08:12:05Z</time></trkpt>
<trkpt lat="46.13071186" lon="6.17704413"><ele>1233.028076</ele><time>2007-05-20T08:12:15Z</time></trkpt>
<trkpt lat="46.13070885" lon="6.17653375"><ele>1233.028076</ele><time>2007-05-20T08:12:24Z</time></trkpt>
<trkpt lat="46.13042889" lon="6.17613385"><ele>1235.912109</ele><time>2007-05-20T08:12:37Z</time></trkpt>
<trkpt lat="46.13017014" lon="6.17594912"><ele>1239.276611</ele><time>2007-05-20T08:12:49Z</time></trkpt>
<trkpt lat="46.13000460" lon="6.17588173"><ele>1241.199219</ele><time>2007-05-20T08:12:56Z</time></trkpt>
<trkpt lat="46.12948953" lon="6.17559180"><ele>1242.160645</ele><time>2007-05-20T08:13:16Z</time></trkpt>
<trkpt lat="46.12903054" lon="6.17548300"><ele>1242.160645</ele><time>2007-05-20T08:13:30Z</time></trkpt>
<trkpt lat="46.12877087" lon="6.17541485"><ele>1242.160645</ele><time>2007-05-20T08:13:38Z</time></trkpt>
<trkpt lat="46.12875167" lon="6.17536976"><ele>1242.641357</ele><time>2007-05-20T08:13:51Z</time></trkpt>
<trkpt lat="46.12874572" lon="6.17535853"><ele>1243.121826</ele><time>2007-05-20T08:14:18Z</time></trkpt>
<trkpt lat="46.12857800" lon="6.17529499"><ele>1241.679932</ele><time>2007-05-20T08:14:25Z</time></trkpt>
<trkpt lat="46.12844045" lon="6.17521176"><ele>1239.757324</ele><time>2007-05-20T08:14:29Z</time></trkpt>
<trkpt lat="46.12830207" lon="6.17516926"><ele>1239.276611</ele><time>2007-05-20T08:14:32Z</time></trkpt>
<trkpt lat="46.12819377" lon="6.17515904"><ele>1237.834717</ele><time>2007-05-20T08:14:34Z</time></trkpt>
<trkpt lat="46.12777627" lon="6.17516264"><ele>1233.989502</ele><time>2007-05-20T08:14:40Z</time></trkpt>
<trkpt lat="46.12769522" lon="6.17516398"><ele>1234.470215</ele><time>2007-05-20T08:14:41Z</time></trkpt>
<trkpt lat="46.12734477" lon="6.17515837"><ele>1231.105713</ele><time>2007-05-20T08:14:45Z</time></trkpt>
<trkpt lat="46.12687639" lon="6.17503013"><ele>1227.740723</ele><time>2007-05-20T08:14:50Z</time></trkpt>
<trkpt lat="46.12669023" lon="6.17495092"><ele>1227.740723</ele><time>2007-05-20T08:14:52Z</time></trkpt>
<trkpt lat="46.12643383" lon="6.17458035"><ele>1225.337402</ele><time>2007-05-20T08:14:56Z</time></trkpt>
<trkpt lat="46.12596947" lon="6.17365407"><ele>1221.011719</ele><time>2007-05-20T08:15:04Z</time></trkpt>
<trkpt lat="46.12587383" lon="6.17341183"><ele>1219.089111</ele><time>2007-05-20T08:15:06Z</time></trkpt>
<trkpt lat="46.12583343" lon="6.17327789"><ele>1218.608398</ele><time>2007-05-20T08:15:07Z</time></trkpt>
<trkpt lat="46.12575472" lon="6.17284714"><ele>1216.685791</ele><time>2007-05-20T08:15:10Z</time></trkpt>
<trkpt lat="46.12573016" lon="6.17270809"><ele>1216.205078</ele><time>2007-05-20T08:15:11Z</time></trkpt>
<trkpt lat="46.12563914" lon="6.17246870"><ele>1214.282471</ele><time>2007-05-20T08:15:13Z</time></trkpt>
<trkpt lat="46.12534133" lon="6.17224708"><ele>1210.917725</ele><time>2007-05-20T08:15:17Z</time></trkpt>
<trkpt lat="46.12517713" lon="6.17219335"><ele>1210.437012</ele><time>2007-05-20T08:15:19Z</time></trkpt>
<trkpt lat="46.12509356" lon="6.17215815"><ele>1208.995117</ele><time>2007-05-20T08:15:20Z</time></trkpt>
<trkpt lat="46.12446835" lon="6.17163143"><ele>1210.437012</ele><time>2007-05-20T08:15:30Z</time></trkpt>
<trkpt lat="46.12414565" lon="6.17150118"><ele>1208.033936</ele><time>2007-05-20T08:15:35Z</time></trkpt>
<trkpt lat="46.12331676" lon="6.17128660"><ele>1208.514404</ele><time>2007-05-20T08:15:49Z</time></trkpt>
<trkpt lat="46.12308173" lon="6.17129406"><ele>1206.111084</ele><time>2007-05-20T08:15:53Z</time></trkpt>
<trkpt lat="46.12233315" lon="6.17155532"><ele>1203.708008</ele><time>2007-05-20T08:16:05Z</time></trkpt>
<trkpt lat="46.12221488" lon="6.17161894"><ele>1202.265869</ele><time>2007-05-20T08:16:07Z</time></trkpt>
<trkpt lat="46.12189494" lon="6.17177174"><ele>1198.420654</ele><time>2007-05-20T08:16:12Z</time></trkpt>
<trkpt lat="46.12172906" lon="6.17182572"><ele>1196.97876</ele><time>2007-05-20T08:16:15Z</time></trkpt>
<trkpt lat="46.12147056" lon="6.17186017"><ele>1193.133301</ele><time>2007-05-20T08:16:20Z</time></trkpt>
<trkpt lat="46.12142589" lon="6.17186805"><ele>1193.133301</ele><time>2007-05-20T08:16:21Z</time></trkpt>
<trkpt lat="46.12100906" lon="6.17199940"><ele>1190.249512</ele><time>2007-05-20T08:16:32Z</time></trkpt>
<trkpt lat="46.12090319" lon="6.17202136"><ele>1188.807617</ele><time>2007-05-20T08:16:35Z</time></trkpt>
<trkpt lat="46.12077143" lon="6.17203519"><ele>1187.365479</ele><time>2007-05-20T08:16:38Z</time></trkpt>
<trkpt lat="46.12053229" lon="6.17204927"><ele>1183.520264</ele><time>2007-05-20T08:16:42Z</time></trkpt>
<trkpt lat="46.12014639" lon="6.17209679"><ele>1182.078369</ele><time>2007-05-20T08:16:48Z</time></trkpt>
<trkpt lat="46.11992268" lon="6.17200032"><ele>1181.117188</ele><time>2007-05-20T08:16:53Z</time></trkpt>
<trkpt lat="46.11967566" lon="6.17179295"><ele>1178.23291</ele><time>2007-05-20T08:16:58Z</time></trkpt>
<trkpt lat="46.11944022" lon="6.17121686"><ele>1178.713623</ele><time>2007-05-20T08:17:05Z</time></trkpt>
<trkpt lat="46.11943083" lon="6.17085367"><ele>1181.117188</ele><time>2007-05-20T08:17:10Z</time></trkpt>
<trkpt lat="46.11930418" lon="6.17031078"><ele>1183.520264</ele><time>2007-05-20T08:17:24Z</time></trkpt>
<trkpt lat="46.11918977" lon="6.16996997"><ele>1186.404297</ele><time>2007-05-20T08:17:38Z</time></trkpt>
<trkpt lat="46.11905607" lon="6.16962874"><ele>1189.288086</ele><time>2007-05-20T08:17:57Z</time></trkpt>
<trkpt lat="46.11890419" lon="6.16938684"><ele>1192.172119</ele><time>2007-05-20T08:18:12Z</time></trkpt>
<trkpt lat="46.11877696" lon="6.16922515"><ele>1195.536621</ele><time>2007-05-20T08:18:26Z</time></trkpt>
<trkpt lat="46.11876807" lon="6.16921409"><ele>1195.536621</ele><time>2007-05-20T08:18:27Z</time></trkpt>
<trkpt lat="46.11864729" lon="6.16902667"><ele>1199.38208</ele><time>2007-05-20T08:18:41Z</time></trkpt>
<trkpt lat="46.11858652" lon="6.16896925"><ele>1201.304688</ele><time>2007-05-20T08:18:47Z</time></trkpt>
<trkpt lat="46.11857772" lon="6.16896297"><ele>1202.265869</ele><time>2007-05-20T08:18:48Z</time></trkpt>
<trkpt lat="46.11838703" lon="6.16899507"><ele>1204.188721</ele><time>2007-05-20T08:19:03Z</time></trkpt>
<trkpt lat="46.11822174" lon="6.16906079"><ele>1208.033936</ele><time>2007-05-20T08:19:16Z</time></trkpt>
<trkpt lat="46.11816768" lon="6.16908987"><ele>1208.514404</ele><time>2007-05-20T08:19:20Z</time></trkpt>
<trkpt lat="46.11810389" lon="6.16912155"><ele>1210.437012</ele><time>2007-05-20T08:19:26Z</time></trkpt>
<trkpt lat="46.11805812" lon="6.16917788"><ele>1211.398438</ele><time>2007-05-20T08:19:31Z</time></trkpt>
<trkpt lat="46.11786308" lon="6.16930336"><ele>1214.282471</ele><time>2007-05-20T08:19:44Z</time></trkpt>
<trkpt lat="46.11766929" lon="6.16928743"><ele>1216.685791</ele><time>2007-05-20T08:20:00Z</time></trkpt>
<trkpt lat="46.11746393" lon="6.16926514"><ele>1219.569824</ele><time>2007-05-20T08:20:16Z</time></trkpt>
<trkpt lat="46.11727567" lon="6.16923538"><ele>1222.934326</ele><time>2007-05-20T08:20:31Z</time></trkpt>
<trkpt lat="46.11704366" lon="6.16920428"><ele>1224.856934</ele><time>2007-05-20T08:20:49Z</time></trkpt>
<trkpt lat="46.11678818" lon="6.16922356"><ele>1227.260254</ele><time>2007-05-20T08:21:08Z</time></trkpt>
<trkpt lat="46.11656506" lon="6.16930017"><ele>1230.144287</ele><time>2007-05-20T08:21:25Z</time></trkpt>
<trkpt lat="46.11637705" lon="6.16925139"><ele>1231.586182</ele><time>2007-05-20T08:21:39Z</time></trkpt>
<trkpt lat="46.11629759" lon="6.16919355"><ele>1233.028076</ele><time>2007-05-20T08:21:45Z</time></trkpt>
<trkpt lat="46.11621863" lon="6.16913966"><ele>1234.470215</ele><time>2007-05-20T08:21:51Z</time></trkpt>
<trkpt lat="46.11601738" lon="6.16893145"><ele>1237.354004</ele><time>2007-05-20T08:22:10Z</time></trkpt>
<trkpt lat="46.11576375" lon="6.16873465"><ele>1240.718506</ele><time>2007-05-20T08:22:28Z</time></trkpt>
<trkpt lat="46.11575302" lon="6.16872249"><ele>1240.718506</ele><time>2007-05-20T08:22:29Z</time></trkpt>
<trkpt lat="46.11563257" lon="6.16851722"><ele>1243.602539</ele><time>2007-05-20T08:22:47Z</time></trkpt>
<trkpt lat="46.11562712" lon="6.16850532"><ele>1244.083496</ele><time>2007-05-20T08:24:09Z</time></trkpt>
<trkpt lat="46.11561522" lon="6.16850389"><ele>1244.083496</ele><time>2007-05-20T08:25:43Z</time></trkpt>
<trkpt lat="46.11547650" lon="6.16823408"><ele>1246.006104</ele><time>2007-05-20T08:26:01Z</time></trkpt>
<trkpt lat="46.11534742" lon="6.16786896"><ele>1245.525391</ele><time>2007-05-20T08:26:18Z</time></trkpt>
<trkpt lat="46.11520325" lon="6.16761868"><ele>1247.447998</ele><time>2007-05-20T08:26:32Z</time></trkpt>
<trkpt lat="46.11512588" lon="6.16756478"><ele>1247.928711</ele><time>2007-05-20T08:26:38Z</time></trkpt>
<trkpt lat="46.11503452" lon="6.16749429"><ele>1248.40918</ele><time>2007-05-20T08:26:45Z</time></trkpt>
<trkpt lat="46.11479698" lon="6.16725096"><ele>1247.447998</ele><time>2007-05-20T08:26:58Z</time></trkpt>
<trkpt lat="46.11475063" lon="6.16724627"><ele>1247.447998</ele><time>2007-05-20T08:27:00Z</time></trkpt>
<trkpt lat="46.11451325" lon="6.16697906"><ele>1250.332031</ele><time>2007-05-20T08:27:16Z</time></trkpt>
<trkpt lat="46.11445240" lon="6.16689398"><ele>1252.735107</ele><time>2007-05-20T08:27:22Z</time></trkpt>
<trkpt lat="46.11438174" lon="6.16677546"><ele>1255.619141</ele><time>2007-05-20T08:27:30Z</time></trkpt>
<trkpt lat="46.11433413" lon="6.16671880"><ele>1256.099609</ele><time>2007-05-20T08:27:35Z</time></trkpt>
<trkpt lat="46.11428518" lon="6.16665677"><ele>1256.099609</ele><time>2007-05-20T08:27:40Z</time></trkpt>
<trkpt lat="46.11407077" lon="6.16670748"><ele>1255.619141</ele><time>2007-05-20T08:27:56Z</time></trkpt>
<trkpt lat="46.11385854" lon="6.16680974"><ele>1256.580322</ele><time>2007-05-20T08:28:12Z</time></trkpt>
<trkpt lat="46.11382283" lon="6.16685257"><ele>1258.022461</ele><time>2007-05-20T08:28:16Z</time></trkpt>
<trkpt lat="46.11370490" lon="6.16695039"><ele>1261.387207</ele><time>2007-05-20T08:28:28Z</time></trkpt>
<trkpt lat="46.11368403" lon="6.16697847"><ele>1261.86792</ele><time>2007-05-20T08:28:31Z</time></trkpt>
<trkpt lat="46.11364237" lon="6.16702608"><ele>1261.86792</ele><time>2007-05-20T08:28:36Z</time></trkpt>
<trkpt lat="46.11351220" lon="6.16718198"><ele>1265.232422</ele><time>2007-05-20T08:28:48Z</time></trkpt>
<trkpt lat="46.11348236" lon="6.16724635"><ele>1265.232422</ele><time>2007-05-20T08:28:52Z</time></trkpt>
<trkpt lat="46.11340139" lon="6.16727846"><ele>1266.193604</ele><time>2007-05-20T08:28:58Z</time></trkpt>
<trkpt lat="46.11333475" lon="6.16723252"><ele>1267.155029</ele><time>2007-05-20T08:29:04Z</time></trkpt>
<trkpt lat="46.11326552" lon="6.16708517"><ele>1267.155029</ele><time>2007-05-20T08:29:13Z</time></trkpt>
<trkpt lat="46.11322252" lon="6.16687445"><ele>1269.077637</ele><time>2007-05-20T08:29:24Z</time></trkpt>
<trkpt lat="46.11319846" lon="6.16661235"><ele>1271.000244</ele><time>2007-05-20T08:29:37Z</time></trkpt>
<trkpt lat="46.11322889" lon="6.16651948"><ele>1271.480713</ele><time>2007-05-20T08:29:42Z</time></trkpt>
<trkpt lat="46.11328362" lon="6.16643935"><ele>1271.961426</ele><time>2007-05-20T08:29:47Z</time></trkpt>
<trkpt lat="46.11333635" lon="6.16637724"><ele>1271.961426</ele><time>2007-05-20T08:29:51Z</time></trkpt>
<trkpt lat="46.11337633" lon="6.16627288"><ele>1272.922852</ele><time>2007-05-20T08:29:57Z</time></trkpt>
<trkpt lat="46.11346853" lon="6.16581657"><ele>1273.884033</ele><time>2007-05-20T08:30:18Z</time></trkpt>
<trkpt lat="46.11347289" lon="6.16577089"><ele>1273.884033</ele><time>2007-05-20T08:30:20Z</time></trkpt>
<trkpt lat="46.11346836" lon="6.16561306"><ele>1275.806641</ele><time>2007-05-20T08:30:31Z</time></trkpt>
<trkpt lat="46.11347725" lon="6.16556553"><ele>1277.729492</ele><time>2007-05-20T08:30:43Z</time></trkpt>
<trkpt lat="46.11337113" lon="6.16532489"><ele>1279.171387</ele><time>2007-05-20T08:30:57Z</time></trkpt>
<trkpt lat="46.11329108" lon="6.16498249"><ele>1279.171387</ele><time>2007-05-20T08:31:12Z</time></trkpt>
<trkpt lat="46.11327910" lon="6.16488660"><ele>1278.690918</ele><time>2007-05-20T08:31:26Z</time></trkpt>
<trkpt lat="46.11324079" lon="6.16472055"><ele>1276.768311</ele><time>2007-05-20T08:32:26Z</time></trkpt>
<trkpt lat="46.11314348" lon="6.16433440"><ele>1276.768311</ele><time>2007-05-20T08:32:40Z</time></trkpt>
<trkpt lat="46.11306662" lon="6.16408487"><ele>1280.613525</ele><time>2007-05-20T08:32:51Z</time></trkpt>
<trkpt lat="46.11293410" lon="6.16384263"><ele>1282.536133</ele><time>2007-05-20T08:33:05Z</time></trkpt>
<trkpt lat="46.11290652" lon="6.16379142"><ele>1283.016602</ele><time>2007-05-20T08:33:18Z</time></trkpt>
<trkpt lat="46.11272254" lon="6.16345765"><ele>1284.939453</ele><time>2007-05-20T08:33:34Z</time></trkpt>
<trkpt lat="46.11255985" lon="6.16314945"><ele>1287.342529</ele><time>2007-05-20T08:33:51Z</time></trkpt>
<trkpt lat="46.11238852" lon="6.16289288"><ele>1288.784668</ele><time>2007-05-20T08:34:07Z</time></trkpt>
<trkpt lat="46.11215819" lon="6.16260974"><ele>1289.265137</ele><time>2007-05-20T08:34:25Z</time></trkpt>
<trkpt lat="46.11193364" lon="6.16233489"><ele>1290.226563</ele><time>2007-05-20T08:34:42Z</time></trkpt>
<trkpt lat="46.11181587" lon="6.16213289"><ele>1293.591309</ele><time>2007-05-20T08:34:54Z</time></trkpt>
<trkpt lat="46.11174219" lon="6.16194120"><ele>1295.994629</ele><time>2007-05-20T08:35:04Z</time></trkpt>
<trkpt lat="46.11170573" lon="6.16184900"><ele>1298.878418</ele><time>2007-05-20T08:35:09Z</time></trkpt>
<trkpt lat="46.11169827" lon="6.16182905"><ele>1298.878418</ele><time>2007-05-20T08:35:10Z</time></trkpt>
<trkpt lat="46.11170146" lon="6.16173785"><ele>1300.801025</ele><time>2007-05-20T08:35:15Z</time></trkpt>
<trkpt lat="46.11155352" lon="6.16156083"><ele>1301.762451</ele><time>2007-05-20T08:35:32Z</time></trkpt>
<trkpt lat="46.11153608" lon="6.16154079"><ele>1302.24292</ele><time>2007-05-20T08:35:34Z</time></trkpt>
<trkpt lat="46.11145503" lon="6.16129235"><ele>1306.088135</ele><time>2007-05-20T08:35:49Z</time></trkpt>
<trkpt lat="46.11138194" lon="6.16109177"><ele>1308.01123</ele><time>2007-05-20T08:36:04Z</time></trkpt>
<trkpt lat="46.11124464" lon="6.16083328"><ele>1309.453125</ele><time>2007-05-20T08:36:20Z</time></trkpt>
<trkpt lat="46.11102110" lon="6.16055089"><ele>1310.414307</ele><time>2007-05-20T08:36:38Z</time></trkpt>
<trkpt lat="46.11075900" lon="6.16030698"><ele>1311.856445</ele><time>2007-05-20T08:36:57Z</time></trkpt>
<trkpt lat="46.11059153" lon="6.16026104"><ele>1314.259521</ele><time>2007-05-20T08:37:14Z</time></trkpt>
<trkpt lat="46.11058650" lon="6.16025845"><ele>1314.740234</ele><time>2007-05-20T08:38:42Z</time></trkpt>
<trkpt lat="46.11048214" lon="6.16019684"><ele>1314.740234</ele><time>2007-05-20T08:39:19Z</time></trkpt>
<trkpt lat="46.11019875" lon="6.16000850"><ele>1314.740234</ele><time>2007-05-20T08:39:36Z</time></trkpt>
<trkpt lat="46.10978745" lon="6.15982602"><ele>1314.259521</ele><time>2007-05-20T08:39:53Z</time></trkpt>
<trkpt lat="46.10944279" lon="6.15963089"><ele>1312.336914</ele><time>2007-05-20T08:40:06Z</time></trkpt>
<trkpt lat="46.10914439" lon="6.15936276"><ele>1312.336914</ele><time>2007-05-20T08:40:18Z</time></trkpt>
<trkpt lat="46.10878095" lon="6.15900208"><ele>1312.336914</ele><time>2007-05-20T08:40:33Z</time></trkpt>
<trkpt lat="46.10848708" lon="6.15866446"><ele>1314.740234</ele><time>2007-05-20T08:40:49Z</time></trkpt>
<trkpt lat="46.10825063" lon="6.15844049"><ele>1316.182129</ele><time>2007-05-20T08:41:04Z</time></trkpt>
<trkpt lat="46.10795659" lon="6.15805987"><ele>1317.624023</ele><time>2007-05-20T08:41:24Z</time></trkpt>
<trkpt lat="46.10778795" lon="6.15781227"><ele>1320.508057</ele><time>2007-05-20T08:41:40Z</time></trkpt>
<trkpt lat="46.10767814" lon="6.15765394"><ele>1323.39209</ele><time>2007-05-20T08:41:50Z</time></trkpt>
<trkpt lat="46.10765409" lon="6.15762594"><ele>1324.834229</ele><time>2007-05-20T08:41:52Z</time></trkpt>
<trkpt lat="46.10763104" lon="6.15757045"><ele>1325.314697</ele><time>2007-05-20T08:41:58Z</time></trkpt>
<trkpt lat="46.10762567" lon="6.15752377"><ele>1326.756836</ele><time>2007-05-20T08:42:11Z</time></trkpt>
<trkpt lat="46.10765425" lon="6.15742385"><ele>1327.237549</ele><time>2007-05-20T08:42:24Z</time></trkpt>
<trkpt lat="46.10758150" lon="6.15736904"><ele>1328.679443</ele><time>2007-05-20T08:42:41Z</time></trkpt>
<trkpt lat="46.10749072" lon="6.15730852"><ele>1329.640625</ele><time>2007-05-20T08:42:57Z</time></trkpt>
<trkpt lat="46.10748360" lon="6.15730533"><ele>1330.121338</ele><time>2007-05-20T08:42:58Z</time></trkpt>
<trkpt lat="46.10738553" lon="6.15725638"><ele>1333.48584</ele><time>2007-05-20T08:43:15Z</time></trkpt>
<trkpt lat="46.10732828" lon="6.15723208"><ele>1334.927979</ele><time>2007-05-20T08:43:30Z</time></trkpt>
<trkpt lat="46.10725427" lon="6.15714465"><ele>1336.369873</ele><time>2007-05-20T08:43:52Z</time></trkpt>
<trkpt lat="46.10719719" lon="6.15709470"><ele>1336.850342</ele><time>2007-05-20T08:44:12Z</time></trkpt>
<trkpt lat="46.10718202" lon="6.15707466"><ele>1337.331055</ele><time>2007-05-20T08:45:25Z</time></trkpt>
<trkpt lat="46.10704212" lon="6.15696235"><ele>1335.408447</ele><time>2007-05-20T08:45:39Z</time></trkpt>
<trkpt lat="46.10663904" lon="6.15664979"><ele>1334.927979</ele><time>2007-05-20T08:45:56Z</time></trkpt>
<trkpt lat="46.10629848" lon="6.15647226"><ele>1334.447266</ele><time>2007-05-20T08:46:11Z</time></trkpt>
<trkpt lat="46.10626244" lon="6.15645532"><ele>1333.005127</ele><time>2007-05-20T08:46:12Z</time></trkpt>
<trkpt lat="46.10610947" lon="6.15641543"><ele>1331.082764</ele><time>2007-05-20T08:46:16Z</time></trkpt>
<trkpt lat="46.10596178" lon="6.15636874"><ele>1327.718018</ele><time>2007-05-20T08:46:19Z</time></trkpt>
<trkpt lat="46.10578006" lon="6.15621694"><ele>1323.39209</ele><time>2007-05-20T08:46:23Z</time></trkpt>
<trkpt lat="46.10566825" lon="6.15601259"><ele>1319.546875</ele><time>2007-05-20T08:46:26Z</time></trkpt>
<trkpt lat="46.10559658" lon="6.15589064"><ele>1319.066162</ele><time>2007-05-20T08:46:28Z</time></trkpt>
<trkpt lat="46.10545233" lon="6.15578729"><ele>1317.624023</ele><time>2007-05-20T08:46:35Z</time></trkpt>
<trkpt lat="46.10541184" lon="6.15584546"><ele>1316.182129</ele><time>2007-05-20T08:46:48Z</time></trkpt>
<trkpt lat="46.10533993" lon="6.15581562"><ele>1316.182129</ele><time>2007-05-20T08:47:00Z</time></trkpt>
<trkpt lat="46.10531218" lon="6.15582819"><ele>1315.70166</ele><time>2007-05-20T08:47:05Z</time></trkpt>
<trkpt lat="46.10528218" lon="6.15585065"><ele>1316.662842</ele><time>2007-05-20T08:47:25Z</time></trkpt>
<trkpt lat="46.10527463" lon="6.15584236"><ele>1316.182129</ele><time>2007-05-20T08:47:40Z</time></trkpt>
<trkpt lat="46.10526818" lon="6.15584093"><ele>1316.662842</ele><time>2007-05-20T08:47:41Z</time></trkpt>
<trkpt lat="46.10511647" lon="6.15588795"><ele>1317.624023</ele><time>2007-05-20T08:47:55Z</time></trkpt>
<trkpt lat="46.10503935" lon="6.15588468"><ele>1319.066162</ele><time>2007-05-20T08:48:10Z</time></trkpt>
<trkpt lat="46.10489988" lon="6.15594143"><ele>1318.585449</ele><time>2007-05-20T08:48:21Z</time></trkpt>
<trkpt lat="46.10458296" lon="6.15620462"><ele>1318.104736</ele><time>2007-05-20T08:48:32Z</time></trkpt>
<trkpt lat="46.10450702" lon="6.15626455"><ele>1317.624023</ele><time>2007-05-20T08:48:34Z</time></trkpt>
<trkpt lat="46.10430828" lon="6.15632289"><ele>1317.624023</ele><time>2007-05-20T08:48:38Z</time></trkpt>
<trkpt lat="46.10417895" lon="6.15630822"><ele>1311.856445</ele><time>2007-05-20T08:48:40Z</time></trkpt>
<trkpt lat="46.10410879" lon="6.15629456"><ele>1310.89502</ele><time>2007-05-20T08:48:41Z</time></trkpt>
<trkpt lat="46.10396639" lon="6.15624838"><ele>1308.972412</ele><time>2007-05-20T08:48:43Z</time></trkpt>
<trkpt lat="46.10373404" lon="6.15605475"><ele>1312.336914</ele><time>2007-05-20T08:48:48Z</time></trkpt>
<trkpt lat="46.10372297" lon="6.15602273"><ele>1312.336914</ele><time>2007-05-20T08:48:49Z</time></trkpt>
<trkpt lat="46.10370747" lon="6.15596808"><ele>1313.29834</ele><time>2007-05-20T08:48:51Z</time></trkpt>
<trkpt lat="46.10361862" lon="6.15579852"><ele>1311.375732</ele><time>2007-05-20T08:48:56Z</time></trkpt>
<trkpt lat="46.10310414" lon="6.15565603"><ele>1309.453125</ele><time>2007-05-20T08:49:07Z</time></trkpt>
<trkpt lat="46.10226536" lon="6.15543223"><ele>1307.049561</ele><time>2007-05-20T08:49:25Z</time></trkpt>
<trkpt lat="46.10187158" lon="6.15522394"><ele>1309.933594</ele><time>2007-05-20T08:49:37Z</time></trkpt>
<trkpt lat="46.10159908" lon="6.15505965"><ele>1313.29834</ele><time>2007-05-20T08:49:52Z</time></trkpt>
<trkpt lat="46.10128996" lon="6.15496234"><ele>1312.817627</ele><time>2007-05-20T08:50:07Z</time></trkpt>
<trkpt lat="46.10098570" lon="6.15462413"><ele>1312.817627</ele><time>2007-05-20T08:50:22Z</time></trkpt>
<trkpt lat="46.10098352" lon="6.15427176"><ele>1315.220947</ele><time>2007-05-20T08:50:36Z</time></trkpt>
<trkpt lat="46.10104714" lon="6.15413278"><ele>1315.220947</ele><time>2007-05-20T08:50:47Z</time></trkpt>
<trkpt lat="46.10113766" lon="6.15367547"><ele>1316.662842</ele><time>2007-05-20T08:51:05Z</time></trkpt>
<trkpt lat="46.10121938" lon="6.15303936"><ele>1315.70166</ele><time>2007-05-20T08:51:18Z</time></trkpt>
<trkpt lat="46.10131335" lon="6.15236504"><ele>1316.182129</ele><time>2007-05-20T08:51:33Z</time></trkpt>
<trkpt lat="46.10110397" lon="6.15182818"><ele>1315.70166</ele><time>2007-05-20T08:51:48Z</time></trkpt>
<trkpt lat="46.10081412" lon="6.15114187"><ele>1317.143555</ele><time>2007-05-20T08:52:08Z</time></trkpt>
<trkpt lat="46.10061823" lon="6.15058263"><ele>1316.662842</ele><time>2007-05-20T08:52:22Z</time></trkpt>
<trkpt lat="46.10038346" lon="6.14991535"><ele>1314.740234</ele><time>2007-05-20T08:52:39Z</time></trkpt>
<trkpt lat="46.10011155" lon="6.14941545"><ele>1313.778809</ele><time>2007-05-20T08:52:53Z</time></trkpt>
<trkpt lat="46.09999169" lon="6.14909492"><ele>1312.817627</ele><time>2007-05-20T08:53:02Z</time></trkpt>
<trkpt lat="46.09992715" lon="6.14880826"><ele>1312.817627</ele><time>2007-05-20T08:53:14Z</time></trkpt>
<trkpt lat="46.09953370" lon="6.14852269"><ele>1313.29834</ele><time>2007-05-20T08:53:31Z</time></trkpt>
<trkpt lat="46.09902006" lon="6.14811852"><ele>1315.220947</ele><time>2007-05-20T08:53:51Z</time></trkpt>
<trkpt lat="46.09865846" lon="6.14742433"><ele>1318.104736</ele><time>2007-05-20T08:54:10Z</time></trkpt>
<trkpt lat="46.09832712" lon="6.14686634"><ele>1321.469238</ele><time>2007-05-20T08:54:27Z</time></trkpt>
<trkpt lat="46.09805983" lon="6.14650659"><ele>1323.872559</ele><time>2007-05-20T08:54:38Z</time></trkpt>
<trkpt lat="46.09791130" lon="6.14633468"><ele>1325.314697</ele><time>2007-05-20T08:54:44Z</time></trkpt>
<trkpt lat="46.09741182" lon="6.14615405"><ele>1326.756836</ele><time>2007-05-20T08:55:02Z</time></trkpt>
<trkpt lat="46.09696507" lon="6.14653023"><ele>1327.237549</ele><time>2007-05-20T08:55:20Z</time></trkpt>
<trkpt lat="46.09664605" lon="6.14678864"><ele>1328.19873</ele><time>2007-05-20T08:55:34Z</time></trkpt>
<trkpt lat="46.09659618" lon="6.14680993"><ele>1328.679443</ele><time>2007-05-20T08:55:36Z</time></trkpt>
<trkpt lat="46.09642309" lon="6.14686802"><ele>1328.679443</ele><time>2007-05-20T08:55:44Z</time></trkpt>
<trkpt lat="46.09627875" lon="6.14685939"><ele>1327.718018</ele><time>2007-05-20T08:55:49Z</time></trkpt>
<trkpt lat="46.09609435" lon="6.14688747"><ele>1329.640625</ele><time>2007-05-20T08:55:55Z</time></trkpt>
<trkpt lat="46.09567090" lon="6.14696324"><ele>1329.159912</ele><time>2007-05-20T08:56:08Z</time></trkpt>
<trkpt lat="46.09541894" lon="6.14672519"><ele>1327.718018</ele><time>2007-05-20T08:56:16Z</time></trkpt>
<trkpt lat="46.09531207" lon="6.14645580"><ele>1327.237549</ele><time>2007-05-20T08:56:21Z</time></trkpt>
<trkpt lat="46.09502088" lon="6.14535936"><ele>1330.602051</ele><time>2007-05-20T08:56:42Z</time></trkpt>
<trkpt lat="46.09469675" lon="6.14452570"><ele>1333.48584</ele><time>2007-05-20T08:57:02Z</time></trkpt>
<trkpt lat="46.09427322" lon="6.14392078"><ele>1334.927979</ele><time>2007-05-20T08:57:21Z</time></trkpt>
<trkpt lat="46.09371180" lon="6.14360939"><ele>1338.29248</ele><time>2007-05-20T08:57:39Z</time></trkpt>
<trkpt lat="46.09330125" lon="6.14295853"><ele>1339.253662</ele><time>2007-05-20T08:57:58Z</time></trkpt>
<trkpt lat="46.09293287" lon="6.14255888"><ele>1340.215332</ele><time>2007-05-20T08:58:13Z</time></trkpt>
<trkpt lat="46.09259935" lon="6.14179353"><ele>1339.253662</ele><time>2007-05-20T08:58:31Z</time></trkpt>
<trkpt lat="46.09236709" lon="6.14079852"><ele>1335.88916</ele><time>2007-05-20T08:58:43Z</time></trkpt>
<trkpt lat="46.09228402" lon="6.14042359"><ele>1336.369873</ele><time>2007-05-20T08:58:47Z</time></trkpt>
<trkpt lat="46.09225083" lon="6.14010332"><ele>1336.369873</ele><time>2007-05-20T08:58:51Z</time></trkpt>
<trkpt lat="46.09213734" lon="6.13971960"><ele>1337.331055</ele><time>2007-05-20T08:59:00Z</time></trkpt>
<trkpt lat="46.09207632" lon="6.13989294"><ele>1335.88916</ele><time>2007-05-20T08:59:43Z</time></trkpt>
<trkpt lat="46.09206936" lon="6.13987592"><ele>1336.369873</ele><time>2007-05-20T09:00:56Z</time></trkpt>
<trkpt lat="46.09206827" lon="6.13986016"><ele>1337.811768</ele><time>2007-05-20T09:02:17Z</time></trkpt>
<trkpt lat="46.09210976" lon="6.13978104"><ele>1339.253662</ele><time>2007-05-20T09:03:14Z</time></trkpt>
<trkpt lat="46.09212720" lon="6.13972873"><ele>1339.253662</ele><time>2007-05-20T09:03:25Z</time></trkpt>
<trkpt lat="46.09214857" lon="6.13966377"><ele>1338.773193</ele><time>2007-05-20T09:03:29Z</time></trkpt>
<trkpt lat="46.09226475" lon="6.13951324"><ele>1334.927979</ele><time>2007-05-20T09:03:35Z</time></trkpt>
<trkpt lat="46.09236198" lon="6.13931165"><ele>1333.005127</ele><time>2007-05-20T09:03:40Z</time></trkpt>
<trkpt lat="46.09245577" lon="6.13908978"><ele>1329.640625</ele><time>2007-05-20T09:03:44Z</time></trkpt>
<trkpt lat="46.09253104" lon="6.13892365"><ele>1326.276123</ele><time>2007-05-20T09:03:48Z</time></trkpt>
<trkpt lat="46.09256163" lon="6.13885383"><ele>1324.353516</ele><time>2007-05-20T09:03:50Z</time></trkpt>
<trkpt lat="46.09267018" lon="6.13863540"><ele>1322.911377</ele><time>2007-05-20T09:04:03Z</time></trkpt>
<trkpt lat="46.09268175" lon="6.13843080"><ele>1323.39209</ele><time>2007-05-20T09:04:20Z</time></trkpt>
<trkpt lat="46.09266842" lon="6.13829836"><ele>1319.066162</ele><time>2007-05-20T09:04:24Z</time></trkpt>
<trkpt lat="46.09263908" lon="6.13816165"><ele>1316.182129</ele><time>2007-05-20T09:04:28Z</time></trkpt>
<trkpt lat="46.09262542" lon="6.13803660"><ele>1314.259521</ele><time>2007-05-20T09:04:41Z</time></trkpt>
<trkpt lat="46.09260480" lon="6.13801690"><ele>1313.778809</ele><time>2007-05-20T09:04:47Z</time></trkpt>
<trkpt lat="46.09259726" lon="6.13795093"><ele>1312.336914</ele><time>2007-05-20T09:04:50Z</time></trkpt>
<trkpt lat="46.09260824" lon="6.13785856"><ele>1310.414307</ele><time>2007-05-20T09:04:55Z</time></trkpt>
<trkpt lat="46.09264679" lon="6.13779486"><ele>1309.453125</ele><time>2007-05-20T09:05:00Z</time></trkpt>
<trkpt lat="46.09259843" lon="6.13763577"><ele>1309.453125</ele><time>2007-05-20T09:05:12Z</time></trkpt>
<trkpt lat="46.09262332" lon="6.13759764"><ele>1308.01123</ele><time>2007-05-20T09:05:27Z</time></trkpt>
<trkpt lat="46.09258963" lon="6.13743427"><ele>1305.607666</ele><time>2007-05-20T09:05:31Z</time></trkpt>
<trkpt lat="46.09254043" lon="6.13713747"><ele>1301.762451</ele><time>2007-05-20T09:05:38Z</time></trkpt>
<trkpt lat="46.09249097" lon="6.13698157"><ele>1297.917236</ele><time>2007-05-20T09:05:41Z</time></trkpt>
<trkpt lat="46.09243046" lon="6.13685349"><ele>1296.475342</ele><time>2007-05-20T09:05:43Z</time></trkpt>
<trkpt lat="46.09239978" lon="6.13679046"><ele>1296.475342</ele><time>2007-05-20T09:05:44Z</time></trkpt>
<trkpt lat="46.09223449" lon="6.13625578"><ele>1293.110596</ele><time>2007-05-20T09:05:54Z</time></trkpt>
<trkpt lat="46.09215863" lon="6.13611270"><ele>1291.668457</ele><time>2007-05-20T09:05:57Z</time></trkpt>
<trkpt lat="46.09203248" lon="6.13580885"><ele>1288.303955</ele><time>2007-05-20T09:06:04Z</time></trkpt>
<trkpt lat="46.09199032" lon="6.13572026"><ele>1287.823242</ele><time>2007-05-20T09:06:06Z</time></trkpt>
<trkpt lat="46.09193785" lon="6.13558036"><ele>1286.381348</ele><time>2007-05-20T09:06:09Z</time></trkpt>
<trkpt lat="46.09180248" lon="6.13534408"><ele>1283.016602</ele><time>2007-05-20T09:06:16Z</time></trkpt>
<trkpt lat="46.09177524" lon="6.13531189"><ele>1283.016602</ele><time>2007-05-20T09:06:17Z</time></trkpt>
<trkpt lat="46.09147366" lon="6.13500436"><ele>1280.613525</ele><time>2007-05-20T09:06:27Z</time></trkpt>
<trkpt lat="46.09133394" lon="6.13477536"><ele>1277.249023</ele><time>2007-05-20T09:06:32Z</time></trkpt>
<trkpt lat="46.09128599" lon="6.13467948"><ele>1273.884033</ele><time>2007-05-20T09:06:34Z</time></trkpt>
<trkpt lat="46.09111534" lon="6.13443187"><ele>1270.519531</ele><time>2007-05-20T09:06:38Z</time></trkpt>
<trkpt lat="46.09107896" lon="6.13439022"><ele>1270.038818</ele><time>2007-05-20T09:06:39Z</time></trkpt>
<trkpt lat="46.09096128" lon="6.13419953"><ele>1268.116211</ele><time>2007-05-20T09:06:44Z</time></trkpt>
<trkpt lat="46.09074527" lon="6.13388638"><ele>1264.270996</ele><time>2007-05-20T09:06:53Z</time></trkpt>
<trkpt lat="46.09069037" lon="6.13380323"><ele>1263.790283</ele><time>2007-05-20T09:06:55Z</time></trkpt>
<trkpt lat="46.09057495" lon="6.13362009"><ele>1264.270996</ele><time>2007-05-20T09:07:04Z</time></trkpt>
<trkpt lat="46.09040447" lon="6.13335916"><ele>1260.425781</ele><time>2007-05-20T09:07:22Z</time></trkpt>
<trkpt lat="46.09038183" lon="6.13332278"><ele>1260.906494</ele><time>2007-05-20T09:07:23Z</time></trkpt>
<trkpt lat="46.09029064" lon="6.13318222"><ele>1259.464355</ele><time>2007-05-20T09:07:26Z</time></trkpt>
<trkpt lat="46.09014228" lon="6.13295984"><ele>1257.061035</ele><time>2007-05-20T09:07:30Z</time></trkpt>
<trkpt lat="46.08988018" lon="6.13242717"><ele>1255.138428</ele><time>2007-05-20T09:07:38Z</time></trkpt>
<trkpt lat="46.08962336" lon="6.13195234"><ele>1253.21582</ele><time>2007-05-20T09:07:46Z</time></trkpt>
<trkpt lat="46.08956787" lon="6.13182426"><ele>1252.254395</ele><time>2007-05-20T09:07:48Z</time></trkpt>
<trkpt lat="46.08947969" lon="6.13160156"><ele>1250.8125</ele><time>2007-05-20T09:07:51Z</time></trkpt>
<trkpt lat="46.08941750" lon="6.13143124"><ele>1249.370605</ele><time>2007-05-20T09:07:53Z</time></trkpt>
<trkpt lat="46.08922136" lon="6.13098515"><ele>1246.006104</ele><time>2007-05-20T09:08:01Z</time></trkpt>
<trkpt lat="46.08920066" lon="6.13092958"><ele>1245.525391</ele><time>2007-05-20T09:08:02Z</time></trkpt>
<trkpt lat="46.08898323" lon="6.13059623"><ele>1244.083496</ele><time>2007-05-20T09:08:12Z</time></trkpt>
<trkpt lat="46.08895565" lon="6.13045089"><ele>1244.083496</ele><time>2007-05-20T09:08:24Z</time></trkpt>
<trkpt lat="46.08893747" lon="6.13042398"><ele>1244.563965</ele><time>2007-05-20T09:08:38Z</time></trkpt>
<trkpt lat="46.08888592" lon="6.13039146"><ele>1244.083496</ele><time>2007-05-20T09:08:48Z</time></trkpt>
<trkpt lat="46.08886312" lon="6.13036363"><ele>1244.083496</ele><time>2007-05-20T09:09:04Z</time></trkpt>
<trkpt lat="46.08883319" lon="6.13031493"><ele>1243.602539</ele><time>2007-05-20T09:09:20Z</time></trkpt>
<trkpt lat="46.08881786" lon="6.13028593"><ele>1243.602539</ele><time>2007-05-20T09:09:31Z</time></trkpt>
<trkpt lat="46.08879313" lon="6.13027202"><ele>1243.602539</ele><time>2007-05-20T09:09:47Z</time></trkpt>
<trkpt lat="46.08875197" lon="6.13027269"><ele>1243.121826</ele><time>2007-05-20T09:09:59Z</time></trkpt>
<trkpt lat="46.08873479" lon="6.13025509"><ele>1242.641357</ele><time>2007-05-20T09:10:15Z</time></trkpt>
<trkpt lat="46.08869338" lon="6.13022936"><ele>1242.641357</ele><time>2007-05-20T09:10:41Z</time></trkpt>
<trkpt lat="46.08860353" lon="6.13004638"><ele>1240.718506</ele><time>2007-05-20T09:11:10Z</time></trkpt>
<trkpt lat="46.08832374" lon="6.12974354"><ele>1239.757324</ele><time>2007-05-20T09:11:18Z</time></trkpt>
<trkpt lat="46.08822215" lon="6.12962519"><ele>1237.834717</ele><time>2007-05-20T09:11:20Z</time></trkpt>
<trkpt lat="46.08813155" lon="6.12950935"><ele>1238.31543</ele><time>2007-05-20T09:11:22Z</time></trkpt>
<trkpt lat="46.08810196" lon="6.12941229"><ele>1237.354004</ele><time>2007-05-20T09:11:24Z</time></trkpt>
<trkpt lat="46.08808637" lon="6.12937147"><ele>1236.392822</ele><time>2007-05-20T09:11:25Z</time></trkpt>
<trkpt lat="46.08796366" lon="6.12911465"><ele>1234.470215</ele><time>2007-05-20T09:11:30Z</time></trkpt>
<trkpt lat="46.08784505" lon="6.12883327"><ele>1231.105713</ele><time>2007-05-20T09:11:36Z</time></trkpt>
<trkpt lat="46.08773265" lon="6.12859715"><ele>1227.740723</ele><time>2007-05-20T09:11:41Z</time></trkpt>
<trkpt lat="46.08758052" lon="6.12827394"><ele>1223.895508</ele><time>2007-05-20T09:11:48Z</time></trkpt>
<trkpt lat="46.08753777" lon="6.12819624"><ele>1223.895508</ele><time>2007-05-20T09:11:49Z</time></trkpt>
<trkpt lat="46.08749670" lon="6.12812567"><ele>1223.415039</ele><time>2007-05-20T09:11:50Z</time></trkpt>
<trkpt lat="46.08742369" lon="6.12801536"><ele>1222.453613</ele><time>2007-05-20T09:11:52Z</time></trkpt>
<trkpt lat="46.08737240" lon="6.12791888"><ele>1221.011719</ele><time>2007-05-20T09:11:54Z</time></trkpt>
<trkpt lat="46.08723602" lon="6.12764974"><ele>1218.127686</ele><time>2007-05-20T09:11:58Z</time></trkpt>
<trkpt lat="46.08716427" lon="6.12753307"><ele>1216.685791</ele><time>2007-05-20T09:12:00Z</time></trkpt>
<trkpt lat="46.08708682" lon="6.12743516"><ele>1216.205078</ele><time>2007-05-20T09:12:02Z</time></trkpt>
<trkpt lat="46.08696093" lon="6.12724682"><ele>1212.840576</ele><time>2007-05-20T09:12:07Z</time></trkpt>
<trkpt lat="46.08677309" lon="6.12694063"><ele>1210.437012</ele><time>2007-05-20T09:12:14Z</time></trkpt>
<trkpt lat="46.08663613" lon="6.12658373"><ele>1206.591797</ele><time>2007-05-20T09:12:19Z</time></trkpt>
<trkpt lat="46.08655524" lon="6.12631115"><ele>1205.149902</ele><time>2007-05-20T09:12:22Z</time></trkpt>
<trkpt lat="46.08647956" lon="6.12598912"><ele>1203.708008</ele><time>2007-05-20T09:12:26Z</time></trkpt>
<trkpt lat="46.08642817" lon="6.12575828"><ele>1202.265869</ele><time>2007-05-20T09:12:30Z</time></trkpt>
<trkpt lat="46.08639029" lon="6.12563456"><ele>1201.304688</ele><time>2007-05-20T09:12:32Z</time></trkpt>
<trkpt lat="46.08626154" lon="6.12524187"><ele>1197.459473</ele><time>2007-05-20T09:12:38Z</time></trkpt>
<trkpt lat="46.08609256" lon="6.12481783"><ele>1193.133301</ele><time>2007-05-20T09:12:44Z</time></trkpt>
<trkpt lat="46.08598620" lon="6.12462438"><ele>1190.249512</ele><time>2007-05-20T09:12:47Z</time></trkpt>
<trkpt lat="46.08587472" lon="6.12435875"><ele>1187.365479</ele><time>2007-05-20T09:12:51Z</time></trkpt>
<trkpt lat="46.08582283" lon="6.12423227"><ele>1186.404297</ele><time>2007-05-20T09:12:53Z</time></trkpt>
<trkpt lat="46.08575620" lon="6.12410369"><ele>1184.962402</ele><time>2007-05-20T09:12:55Z</time></trkpt>
<trkpt lat="46.08564187" lon="6.12388769"><ele>1183.520264</ele><time>2007-05-20T09:12:58Z</time></trkpt>
<trkpt lat="46.08560407" lon="6.12381997"><ele>1183.039551</ele><time>2007-05-20T09:12:59Z</time></trkpt>
<trkpt lat="46.08552595" lon="6.12369952"><ele>1181.117188</ele><time>2007-05-20T09:13:01Z</time></trkpt>
<trkpt lat="46.08534129" lon="6.12345317"><ele>1180.636475</ele><time>2007-05-20T09:13:06Z</time></trkpt>
<trkpt lat="46.08528597" lon="6.12328176"><ele>1179.194092</ele><time>2007-05-20T09:13:09Z</time></trkpt>
<trkpt lat="46.08531523" lon="6.12316475"><ele>1177.752197</ele><time>2007-05-20T09:13:11Z</time></trkpt>
<trkpt lat="46.08531112" lon="6.12293467"><ele>1179.674805</ele><time>2007-05-20T09:13:20Z</time></trkpt>
<trkpt lat="46.08530416" lon="6.12286644"><ele>1179.194092</ele><time>2007-05-20T09:13:24Z</time></trkpt>
<trkpt lat="46.08526158" lon="6.12256570"><ele>1180.155762</ele><time>2007-05-20T09:13:38Z</time></trkpt>
<trkpt lat="46.08529804" lon="6.12207142"><ele>1181.117188</ele><time>2007-05-20T09:13:56Z</time></trkpt>
<trkpt lat="46.08535705" lon="6.12154579"><ele>1181.597656</ele><time>2007-05-20T09:14:12Z</time></trkpt>
<trkpt lat="46.08538999" lon="6.12088915"><ele>1182.078369</ele><time>2007-05-20T09:14:30Z</time></trkpt>
<trkpt lat="46.08533216" lon="6.12019479"><ele>1181.597656</ele><time>2007-05-20T09:14:49Z</time></trkpt>
<trkpt lat="46.08514398" lon="6.11960177"><ele>1183.039551</ele><time>2007-05-20T09:15:07Z</time></trkpt>
<trkpt lat="46.08477778" lon="6.11903943"><ele>1185.442871</ele><time>2007-05-20T09:15:28Z</time></trkpt>
<trkpt lat="46.08437696" lon="6.11862562"><ele>1187.365479</ele><time>2007-05-20T09:15:49Z</time></trkpt>
<trkpt lat="46.08408686" lon="6.11842319"><ele>1189.768799</ele><time>2007-05-20T09:16:04Z</time></trkpt>
<trkpt lat="46.08377933" lon="6.11826285"><ele>1193.133301</ele><time>2007-05-20T09:16:21Z</time></trkpt>
<trkpt lat="46.08344103" lon="6.11814114"><ele>1196.017578</ele><time>2007-05-20T09:16:40Z</time></trkpt>
<trkpt lat="46.08322319" lon="6.11808507"><ele>1198.901367</ele><time>2007-05-20T09:16:53Z</time></trkpt>
<trkpt lat="46.08296519" lon="6.11805095"><ele>1201.7854</ele><time>2007-05-20T09:17:08Z</time></trkpt>
<trkpt lat="46.08267593" lon="6.11807903"><ele>1204.188721</ele><time>2007-05-20T09:17:24Z</time></trkpt>
<trkpt lat="46.08233605" lon="6.11818464"><ele>1207.553223</ele><time>2007-05-20T09:17:43Z</time></trkpt>
<trkpt lat="46.08201485" lon="6.11835480"><ele>1210.917725</ele><time>2007-05-20T09:18:01Z</time></trkpt>
<trkpt lat="46.08167673" lon="6.11865286"><ele>1213.801758</ele><time>2007-05-20T09:18:22Z</time></trkpt>
<trkpt lat="46.08147556" lon="6.11890448"><ele>1217.166504</ele><time>2007-05-20T09:18:36Z</time></trkpt>
<trkpt lat="46.08124967" lon="6.11926817"><ele>1219.569824</ele><time>2007-05-20T09:18:54Z</time></trkpt>
<trkpt lat="46.08112662" lon="6.11954243"><ele>1223.415039</ele><time>2007-05-20T09:19:07Z</time></trkpt>
<trkpt lat="46.08095479" lon="6.12007745"><ele>1225.337402</ele><time>2007-05-20T09:19:30Z</time></trkpt>
<trkpt lat="46.08085077" lon="6.12044315"><ele>1228.702393</ele><time>2007-05-20T09:19:45Z</time></trkpt>
<trkpt lat="46.08068624" lon="6.12094070"><ele>1232.066895</ele><time>2007-05-20T09:20:04Z</time></trkpt>
<trkpt lat="46.08056302" lon="6.12122459"><ele>1234.950928</ele><time>2007-05-20T09:20:16Z</time></trkpt>
<trkpt lat="46.08037879" lon="6.12162533"><ele>1237.354004</ele><time>2007-05-20T09:20:34Z</time></trkpt>
<trkpt lat="46.08021853" lon="6.12199288"><ele>1239.276611</ele><time>2007-05-20T09:20:50Z</time></trkpt>
<trkpt lat="46.08003178" lon="6.12247216"><ele>1240.238037</ele><time>2007-05-20T09:21:09Z</time></trkpt>
<trkpt lat="46.07987998" lon="6.12282730"><ele>1243.602539</ele><time>2007-05-20T09:21:24Z</time></trkpt>
<trkpt lat="46.07986204" lon="6.12294657"><ele>1243.121826</ele><time>2007-05-20T09:21:36Z</time></trkpt>
<trkpt lat="46.07980303" lon="6.12300935"><ele>1245.044678</ele><time>2007-05-20T09:21:52Z</time></trkpt>
<trkpt lat="46.07974403" lon="6.12300114"><ele>1246.006104</ele><time>2007-05-20T09:22:10Z</time></trkpt>
<trkpt lat="46.07973087" lon="6.12299326"><ele>1247.447998</ele><time>2007-05-20T09:22:12Z</time></trkpt>
<trkpt lat="46.07971896" lon="6.12296518"><ele>1246.006104</ele><time>2007-05-20T09:22:15Z</time></trkpt>
<trkpt lat="46.07969734" lon="6.12289863"><ele>1246.006104</ele><time>2007-05-20T09:22:33Z</time></trkpt>
<trkpt lat="46.07969709" lon="6.12289796"><ele>1246.967285</ele><time>2007-05-20T09:23:10Z</time></trkpt>
<trkpt lat="46.07968435" lon="6.12291262"><ele>1246.486816</ele><time>2007-05-20T09:25:23Z</time></trkpt>
<trkpt lat="46.07968912" lon="6.12289192"><ele>1245.044678</ele><time>2007-05-20T09:28:43Z</time></trkpt>
<trkpt lat="46.07969633" lon="6.12288404"><ele>1244.563965</ele><time>2007-05-20T09:29:29Z</time></trkpt>
<trkpt lat="46.07968066" lon="6.12292059"><ele>1245.525391</ele><time>2007-05-20T09:32:50Z</time></trkpt>
<trkpt lat="46.07965417" lon="6.12286543"><ele>1245.525391</ele><time>2007-05-20T09:32:54Z</time></trkpt>
<trkpt lat="46.07947078" lon="6.12233805"><ele>1245.044678</ele><time>2007-05-20T09:33:11Z</time></trkpt>
<trkpt lat="46.07933138" lon="6.12204166"><ele>1242.160645</ele><time>2007-05-20T09:33:20Z</time></trkpt>
<trkpt lat="46.07890449" lon="6.12144453"><ele>1240.718506</ele><time>2007-05-20T09:33:36Z</time></trkpt>
<trkpt lat="46.07851775" lon="6.12102879"><ele>1237.834717</ele><time>2007-05-20T09:33:46Z</time></trkpt>
<trkpt lat="46.07837845" lon="6.12075764"><ele>1234.470215</ele><time>2007-05-20T09:33:50Z</time></trkpt>
<trkpt lat="46.07830033" lon="6.12044717"><ele>1230.625</ele><time>2007-05-20T09:33:54Z</time></trkpt>
<trkpt lat="46.07826487" lon="6.12030719"><ele>1227.260254</ele><time>2007-05-20T09:33:56Z</time></trkpt>
<trkpt lat="46.07824534" lon="6.12023938"><ele>1226.298828</ele><time>2007-05-20T09:33:57Z</time></trkpt>
<trkpt lat="46.07800663" lon="6.12003428"><ele>1220.531006</ele><time>2007-05-20T09:34:05Z</time></trkpt>
<trkpt lat="46.07795449" lon="6.11998432"><ele>1219.569824</ele><time>2007-05-20T09:34:08Z</time></trkpt>
<trkpt lat="46.07791560" lon="6.11975692"><ele>1219.569824</ele><time>2007-05-20T09:34:14Z</time></trkpt>
<trkpt lat="46.07766800" lon="6.11928024"><ele>1218.127686</ele><time>2007-05-20T09:34:29Z</time></trkpt>
<trkpt lat="46.07754176" lon="6.11897388"><ele>1216.685791</ele><time>2007-05-20T09:34:38Z</time></trkpt>
<trkpt lat="46.07743925" lon="6.11865353"><ele>1212.840576</ele><time>2007-05-20T09:34:45Z</time></trkpt>
<trkpt lat="46.07741210" lon="6.11857273"><ele>1211.87915</ele><time>2007-05-20T09:34:47Z</time></trkpt>
<trkpt lat="46.07720188" lon="6.11823938"><ele>1210.437012</ele><time>2007-05-20T09:34:58Z</time></trkpt>
<trkpt lat="46.07699049" lon="6.11816847"><ele>1211.398438</ele><time>2007-05-20T09:35:10Z</time></trkpt>
<trkpt lat="46.07684280" lon="6.11822354"><ele>1215.243896</ele><time>2007-05-20T09:35:19Z</time></trkpt>
<trkpt lat="46.07664842" lon="6.11826570"><ele>1216.205078</ele><time>2007-05-20T09:35:36Z</time></trkpt>
<trkpt lat="46.07651398" lon="6.11829814"><ele>1218.127686</ele><time>2007-05-20T09:35:48Z</time></trkpt>
<trkpt lat="46.07645287" lon="6.11833476"><ele>1218.608398</ele><time>2007-05-20T09:36:03Z</time></trkpt>
<trkpt lat="46.07632044" lon="6.11839084"><ele>1220.531006</ele><time>2007-05-20T09:36:23Z</time></trkpt>
<trkpt lat="46.07611575" lon="6.11838506"><ele>1223.895508</ele><time>2007-05-20T09:36:38Z</time></trkpt>
<trkpt lat="46.07605146" lon="6.11840249"><ele>1225.818115</ele><time>2007-05-20T09:36:43Z</time></trkpt>
<trkpt lat="46.07602925" lon="6.11840584"><ele>1226.298828</ele><time>2007-05-20T09:36:45Z</time></trkpt>
<trkpt lat="46.07595004" lon="6.11841758"><ele>1226.779541</ele><time>2007-05-20T09:36:52Z</time></trkpt>
<trkpt lat="46.07577654" lon="6.11817786"><ele>1223.895508</ele><time>2007-05-20T09:37:00Z</time></trkpt>
<trkpt lat="46.07574343" lon="6.11812279"><ele>1223.415039</ele><time>2007-05-20T09:37:01Z</time></trkpt>
<trkpt lat="46.07570487" lon="6.11806747"><ele>1222.934326</ele><time>2007-05-20T09:37:02Z</time></trkpt>
<trkpt lat="46.07538703" lon="6.11764032"><ele>1225.818115</ele><time>2007-05-20T09:37:12Z</time></trkpt>
<trkpt lat="46.07536222" lon="6.11759749"><ele>1226.298828</ele><time>2007-05-20T09:37:14Z</time></trkpt>
<trkpt lat="46.07512283" lon="6.11729482"><ele>1223.415039</ele><time>2007-05-20T09:37:25Z</time></trkpt>
<trkpt lat="46.07509936" lon="6.11726942"><ele>1223.415039</ele><time>2007-05-20T09:37:26Z</time></trkpt>
<trkpt lat="46.07503926" lon="6.11722735"><ele>1223.415039</ele><time>2007-05-20T09:37:37Z</time></trkpt>
<trkpt lat="46.07502426" lon="6.11722374"><ele>1224.376221</ele><time>2007-05-20T09:37:58Z</time></trkpt>
<trkpt lat="46.07491404" lon="6.11714118"><ele>1224.376221</ele><time>2007-05-20T09:38:05Z</time></trkpt>
<trkpt lat="46.07442177" lon="6.11691169"><ele>1224.856934</ele><time>2007-05-20T09:38:25Z</time></trkpt>
<trkpt lat="46.07393922" lon="6.11673810"><ele>1223.895508</ele><time>2007-05-20T09:38:39Z</time></trkpt>
<trkpt lat="46.07341284" lon="6.11657255"><ele>1223.895508</ele><time>2007-05-20T09:38:52Z</time></trkpt>
<trkpt lat="46.07300590" lon="6.11638396"><ele>1224.376221</ele><time>2007-05-20T09:39:05Z</time></trkpt>
<trkpt lat="46.07267523" lon="6.11630509"><ele>1225.818115</ele><time>2007-05-20T09:39:19Z</time></trkpt>
<trkpt lat="46.07222554" lon="6.11627223"><ele>1225.337402</ele><time>2007-05-20T09:39:35Z</time></trkpt>
<trkpt lat="46.07179304" lon="6.11618288"><ele>1224.856934</ele><time>2007-05-20T09:39:48Z</time></trkpt>
<trkpt lat="46.07165842" lon="6.11603787"><ele>1220.531006</ele><time>2007-05-20T09:39:52Z</time></trkpt>
<trkpt lat="46.07155357" lon="6.11592564"><ele>1219.569824</ele><time>2007-05-20T09:39:54Z</time></trkpt>
<trkpt lat="46.07150026" lon="6.11587359"><ele>1219.569824</ele><time>2007-05-20T09:39:55Z</time></trkpt>
<trkpt lat="46.07131879" lon="6.11576403"><ele>1217.166504</ele><time>2007-05-20T09:39:58Z</time></trkpt>
<trkpt lat="46.07121645" lon="6.11569279"><ele>1216.685791</ele><time>2007-05-20T09:40:00Z</time></trkpt>
<trkpt lat="46.07108887" lon="6.11539029"><ele>1215.724609</ele><time>2007-05-20T09:40:05Z</time></trkpt>
<trkpt lat="46.07105317" lon="6.11526422"><ele>1215.243896</ele><time>2007-05-20T09:40:07Z</time></trkpt>
<trkpt lat="46.07083037" lon="6.11475443"><ele>1216.205078</ele><time>2007-05-20T09:40:17Z</time></trkpt>
<trkpt lat="46.07081369" lon="6.11470456"><ele>1216.205078</ele><time>2007-05-20T09:40:28Z</time></trkpt>
<trkpt lat="46.07081428" lon="6.11462116"><ele>1217.166504</ele><time>2007-05-20T09:40:53Z</time></trkpt>
<trkpt lat="46.07079643" lon="6.11454640"><ele>1216.685791</ele><time>2007-05-20T09:41:11Z</time></trkpt>
<trkpt lat="46.07079785" lon="6.11454288"><ele>1216.685791</ele><time>2007-05-20T09:41:56Z</time></trkpt>
<trkpt lat="46.07064480" lon="6.11435269"><ele>1217.646973</ele><time>2007-05-20T09:42:13Z</time></trkpt>
<trkpt lat="46.07043659" lon="6.11411045"><ele>1218.608398</ele><time>2007-05-20T09:42:26Z</time></trkpt>
<trkpt lat="46.07008019" lon="6.11405035"><ele>1219.569824</ele><time>2007-05-20T09:42:40Z</time></trkpt>
<trkpt lat="46.06999302" lon="6.11408237"><ele>1221.492188</ele><time>2007-05-20T09:42:45Z</time></trkpt>
<trkpt lat="46.06996285" lon="6.11395455"><ele>1221.492188</ele><time>2007-05-20T09:42:50Z</time></trkpt>
<trkpt lat="46.06965875" lon="6.11367032"><ele>1222.453613</ele><time>2007-05-20T09:43:04Z</time></trkpt>
<trkpt lat="46.06940998" lon="6.11344795"><ele>1222.934326</ele><time>2007-05-20T09:43:16Z</time></trkpt>
<trkpt lat="46.06905718" lon="6.11339908"><ele>1225.818115</ele><time>2007-05-20T09:43:30Z</time></trkpt>
<trkpt lat="46.06872627" lon="6.11338349"><ele>1227.260254</ele><time>2007-05-20T09:43:44Z</time></trkpt>
<trkpt lat="46.06829686" lon="6.11324988"><ele>1227.260254</ele><time>2007-05-20T09:43:56Z</time></trkpt>
<trkpt lat="46.06798983" lon="6.11295828"><ele>1227.260254</ele><time>2007-05-20T09:44:07Z</time></trkpt>
<trkpt lat="46.06770677" lon="6.11278888"><ele>1226.779541</ele><time>2007-05-20T09:44:15Z</time></trkpt>
<trkpt lat="46.06769043" lon="6.11245712"><ele>1226.298828</ele><time>2007-05-20T09:44:20Z</time></trkpt>
<trkpt lat="46.06768490" lon="6.11228479"><ele>1226.779541</ele><time>2007-05-20T09:44:23Z</time></trkpt>
<trkpt lat="46.06763058" lon="6.11191657"><ele>1226.298828</ele><time>2007-05-20T09:44:29Z</time></trkpt>
<trkpt lat="46.06752153" lon="6.11156353"><ele>1222.453613</ele><time>2007-05-20T09:44:34Z</time></trkpt>
<trkpt lat="46.06740922" lon="6.11100303"><ele>1221.9729</ele><time>2007-05-20T09:44:41Z</time></trkpt>
<trkpt lat="46.06746839" lon="6.11041764"><ele>1221.492188</ele><time>2007-05-20T09:44:49Z</time></trkpt>
<trkpt lat="46.06749488" lon="6.11003928"><ele>1221.492188</ele><time>2007-05-20T09:44:54Z</time></trkpt>
<trkpt lat="46.06749807" lon="6.10980953"><ele>1221.011719</ele><time>2007-05-20T09:44:57Z</time></trkpt>
<trkpt lat="46.06751156" lon="6.10964969"><ele>1220.531006</ele><time>2007-05-20T09:44:59Z</time></trkpt>
<trkpt lat="46.06757526" lon="6.10905566"><ele>1217.166504</ele><time>2007-05-20T09:45:07Z</time></trkpt>
<trkpt lat="46.06761759" lon="6.10883228"><ele>1214.282471</ele><time>2007-05-20T09:45:10Z</time></trkpt>
<trkpt lat="46.06767442" lon="6.10848695"><ele>1209.47583</ele><time>2007-05-20T09:45:14Z</time></trkpt>
<trkpt lat="46.06768725" lon="6.10837346"><ele>1208.033936</ele><time>2007-05-20T09:45:15Z</time></trkpt>
<trkpt lat="46.06769102" lon="6.10814857"><ele>1207.553223</ele><time>2007-05-20T09:45:17Z</time></trkpt>
<trkpt lat="46.06768683" lon="6.10794632"><ele>1207.07251</ele><time>2007-05-20T09:45:19Z</time></trkpt>
<trkpt lat="46.06758406" lon="6.10737509"><ele>1204.669189</ele><time>2007-05-20T09:45:26Z</time></trkpt>
<trkpt lat="46.06746412" lon="6.10711450"><ele>1206.111084</ele><time>2007-05-20T09:45:30Z</time></trkpt>
<trkpt lat="46.06738038" lon="6.10677402"><ele>1204.669189</ele><time>2007-05-20T09:45:35Z</time></trkpt>
<trkpt lat="46.06733847" lon="6.10646817"><ele>1200.823975</ele><time>2007-05-20T09:45:39Z</time></trkpt>
<trkpt lat="46.06724979" lon="6.10623834"><ele>1198.901367</ele><time>2007-05-20T09:45:43Z</time></trkpt>
<trkpt lat="46.06709733" lon="6.10610087"><ele>1197.459473</ele><time>2007-05-20T09:45:47Z</time></trkpt>
<trkpt lat="46.06678778" lon="6.10593332"><ele>1194.094727</ele><time>2007-05-20T09:45:57Z</time></trkpt>
<trkpt lat="46.06674269" lon="6.10589937"><ele>1193.133301</ele><time>2007-05-20T09:45:58Z</time></trkpt>
<trkpt lat="46.06655343" lon="6.10564456"><ele>1188.326904</ele><time>2007-05-20T09:46:02Z</time></trkpt>
<trkpt lat="46.06645435" lon="6.10537416"><ele>1187.846191</ele><time>2007-05-20T09:46:05Z</time></trkpt>
<trkpt lat="46.06644798" lon="6.10491877"><ele>1184.000977</ele><time>2007-05-20T09:46:10Z</time></trkpt>
<trkpt lat="46.06647564" lon="6.10476748"><ele>1182.559082</ele><time>2007-05-20T09:46:12Z</time></trkpt>
<trkpt lat="46.06647732" lon="6.10462650"><ele>1182.078369</ele><time>2007-05-20T09:46:14Z</time></trkpt>
<trkpt lat="46.06646257" lon="6.10455349"><ele>1180.155762</ele><time>2007-05-20T09:46:15Z</time></trkpt>
<trkpt lat="46.06634857" lon="6.10416197"><ele>1182.078369</ele><time>2007-05-20T09:46:21Z</time></trkpt>
<trkpt lat="46.06622142" lon="6.10387146"><ele>1185.442871</ele><time>2007-05-20T09:46:28Z</time></trkpt>
<trkpt lat="46.06619074" lon="6.10370264"><ele>1187.846191</ele><time>2007-05-20T09:46:33Z</time></trkpt>
<trkpt lat="46.06588874" lon="6.10326016"><ele>1188.326904</ele><time>2007-05-20T09:46:46Z</time></trkpt>
<trkpt lat="46.06552689" lon="6.10281064"><ele>1187.365479</ele><time>2007-05-20T09:46:58Z</time></trkpt>
<trkpt lat="46.06523328" lon="6.10270176"><ele>1185.923584</ele><time>2007-05-20T09:47:06Z</time></trkpt>
<trkpt lat="46.06503345" lon="6.10261568"><ele>1183.039551</ele><time>2007-05-20T09:47:11Z</time></trkpt>
<trkpt lat="46.06492868" lon="6.10260763"><ele>1183.039551</ele><time>2007-05-20T09:47:13Z</time></trkpt>
<trkpt lat="46.06477110" lon="6.10256555"><ele>1182.078369</ele><time>2007-05-20T09:47:16Z</time></trkpt>
<trkpt lat="46.06456096" lon="6.10252733"><ele>1179.674805</ele><time>2007-05-20T09:47:20Z</time></trkpt>
<trkpt lat="46.06433809" lon="6.10248744"><ele>1177.271729</ele><time>2007-05-20T09:47:25Z</time></trkpt>
<trkpt lat="46.06424832" lon="6.10247646"><ele>1176.310303</ele><time>2007-05-20T09:47:27Z</time></trkpt>
<trkpt lat="46.06401178" lon="6.10259632"><ele>1171.984375</ele><time>2007-05-20T09:47:33Z</time></trkpt>
<trkpt lat="46.06397859" lon="6.10262875"><ele>1171.023193</ele><time>2007-05-20T09:47:34Z</time></trkpt>
<trkpt lat="46.06384138" lon="6.10274887"><ele>1165.736084</ele><time>2007-05-20T09:47:37Z</time></trkpt>
<trkpt lat="46.06373132" lon="6.10283704"><ele>1164.774658</ele><time>2007-05-20T09:47:39Z</time></trkpt>
<trkpt lat="46.06351482" lon="6.10291022"><ele>1164.293945</ele><time>2007-05-20T09:47:43Z</time></trkpt>
<trkpt lat="46.06327199" lon="6.10300208"><ele>1160.929199</ele><time>2007-05-20T09:47:48Z</time></trkpt>
<trkpt lat="46.06307527" lon="6.10311474"><ele>1157.083984</ele><time>2007-05-20T09:47:54Z</time></trkpt>
<trkpt lat="46.06304023" lon="6.10314533"><ele>1155.161377</ele><time>2007-05-20T09:47:55Z</time></trkpt>
<trkpt lat="46.06273513" lon="6.10315086"><ele>1152.758057</ele><time>2007-05-20T09:48:01Z</time></trkpt>
<trkpt lat="46.06240187" lon="6.10310250"><ele>1148.912842</ele><time>2007-05-20T09:48:07Z</time></trkpt>
<trkpt lat="46.06228528" lon="6.10314709"><ele>1147.470703</ele><time>2007-05-20T09:48:09Z</time></trkpt>
<trkpt lat="46.06203239" lon="6.10321423"><ele>1145.067383</ele><time>2007-05-20T09:48:13Z</time></trkpt>
<trkpt lat="46.06197498" lon="6.10322597"><ele>1144.58667</ele><time>2007-05-20T09:48:14Z</time></trkpt>
<trkpt lat="46.06170248" lon="6.10315899"><ele>1141.702881</ele><time>2007-05-20T09:48:19Z</time></trkpt>
<trkpt lat="46.06136687" lon="6.10292455"><ele>1138.338379</ele><time>2007-05-20T09:48:26Z</time></trkpt>
<trkpt lat="46.06131943" lon="6.10288558"><ele>1138.338379</ele><time>2007-05-20T09:48:27Z</time></trkpt>
<trkpt lat="46.06115347" lon="6.10279346"><ele>1135.454346</ele><time>2007-05-20T09:48:31Z</time></trkpt>
<trkpt lat="46.06091685" lon="6.10273688"><ele>1131.608887</ele><time>2007-05-20T09:48:37Z</time></trkpt>
<trkpt lat="46.06080704" lon="6.10269195"><ele>1128.244385</ele><time>2007-05-20T09:48:40Z</time></trkpt>
<trkpt lat="46.06072733" lon="6.10265457"><ele>1127.763672</ele><time>2007-05-20T09:48:42Z</time></trkpt>
<trkpt lat="46.06052038" lon="6.10253219"><ele>1124.39917</ele><time>2007-05-20T09:48:48Z</time></trkpt>
<trkpt lat="46.06030497" lon="6.10251627"><ele>1121.034668</ele><time>2007-05-20T09:48:54Z</time></trkpt>
<trkpt lat="46.06013155" lon="6.10253345"><ele>1119.112061</ele><time>2007-05-20T09:48:58Z</time></trkpt>
<trkpt lat="46.05994823" lon="6.10249305"><ele>1116.228027</ele><time>2007-05-20T09:49:02Z</time></trkpt>
<trkpt lat="46.05974422" lon="6.10244033"><ele>1112.382568</ele><time>2007-05-20T09:49:07Z</time></trkpt>
<trkpt lat="46.05966149" lon="6.10242499"><ele>1110.940674</ele><time>2007-05-20T09:49:09Z</time></trkpt>
<trkpt lat="46.05943635" lon="6.10240580"><ele>1109.498779</ele><time>2007-05-20T09:49:14Z</time></trkpt>
<trkpt lat="46.05940475" lon="6.10224637"><ele>1109.498779</ele><time>2007-05-20T09:49:24Z</time></trkpt>
<trkpt lat="46.05940567" lon="6.10223774"><ele>1108.537354</ele><time>2007-05-20T09:49:54Z</time></trkpt>
<trkpt lat="46.05946544" lon="6.10184438"><ele>1107.576172</ele><time>2007-05-20T09:50:04Z</time></trkpt>
<trkpt lat="46.05962595" lon="6.10134004"><ele>1104.21167</ele><time>2007-05-20T09:50:16Z</time></trkpt>
<trkpt lat="46.05963567" lon="6.10129184"><ele>1104.21167</ele><time>2007-05-20T09:50:17Z</time></trkpt>
<trkpt lat="46.05968932" lon="6.10117776"><ele>1102.288818</ele><time>2007-05-20T09:50:19Z</time></trkpt>
<trkpt lat="46.05983675" lon="6.10039263"><ele>1098.443359</ele><time>2007-05-20T09:50:28Z</time></trkpt>
<trkpt lat="46.05984463" lon="6.10029456"><ele>1097.962891</ele><time>2007-05-20T09:50:29Z</time></trkpt>
<trkpt lat="46.05985989" lon="6.10010262"><ele>1096.520996</ele><time>2007-05-20T09:50:31Z</time></trkpt>
<trkpt lat="46.05986450" lon="6.10000296"><ele>1095.078857</ele><time>2007-05-20T09:50:32Z</time></trkpt>
<trkpt lat="46.05988545" lon="6.09888154"><ele>1092.195068</ele><time>2007-05-20T09:50:43Z</time></trkpt>
<trkpt lat="46.05992720" lon="6.09866839"><ele>1090.75293</ele><time>2007-05-20T09:50:46Z</time></trkpt>
<trkpt lat="46.05996190" lon="6.09834468"><ele>1088.830566</ele><time>2007-05-20T09:50:50Z</time></trkpt>
<trkpt lat="46.05993608" lon="6.09802198"><ele>1084.504639</ele><time>2007-05-20T09:50:54Z</time></trkpt>
<trkpt lat="46.05990557" lon="6.09794696"><ele>1084.504639</ele><time>2007-05-20T09:50:55Z</time></trkpt>
<trkpt lat="46.05963592" lon="6.09766139"><ele>1081.139893</ele><time>2007-05-20T09:51:01Z</time></trkpt>
<trkpt lat="46.05955303" lon="6.09758276"><ele>1080.178467</ele><time>2007-05-20T09:51:03Z</time></trkpt>
<trkpt lat="46.05932789" lon="6.09738738"><ele>1076.813965</ele><time>2007-05-20T09:51:08Z</time></trkpt>
<trkpt lat="46.05903385" lon="6.09720323"><ele>1070.56543</ele><time>2007-05-20T09:51:13Z</time></trkpt>
<trkpt lat="46.05880804" lon="6.09706929"><ele>1066.719971</ele><time>2007-05-20T09:51:16Z</time></trkpt>
<trkpt lat="46.05874049" lon="6.09703920"><ele>1064.797363</ele><time>2007-05-20T09:51:17Z</time></trkpt>
<trkpt lat="46.05860855" lon="6.09696418"><ele>1063.355469</ele><time>2007-05-20T09:51:19Z</time></trkpt>
<trkpt lat="46.05855198" lon="6.09692973"><ele>1062.874756</ele><time>2007-05-20T09:51:20Z</time></trkpt>
<trkpt lat="46.05836992" lon="6.09680610"><ele>1061.432861</ele><time>2007-05-20T09:51:23Z</time></trkpt>
<trkpt lat="46.05819834" lon="6.09671943"><ele>1058.548828</ele><time>2007-05-20T09:51:26Z</time></trkpt>
<trkpt lat="46.05795317" lon="6.09665045"><ele>1054.223145</ele><time>2007-05-20T09:51:30Z</time></trkpt>
<trkpt lat="46.05777263" lon="6.09664793"><ele>1048.935547</ele><time>2007-05-20T09:51:33Z</time></trkpt>
<trkpt lat="46.05752846" lon="6.09666402"><ele>1046.051758</ele><time>2007-05-20T09:51:37Z</time></trkpt>
<trkpt lat="46.05729947" lon="6.09651592"><ele>1040.764404</ele><time>2007-05-20T09:51:42Z</time></trkpt>
<trkpt lat="46.05725354" lon="6.09618567"><ele>1036.919189</ele><time>2007-05-20T09:51:46Z</time></trkpt>
<trkpt lat="46.05731648" lon="6.09598048"><ele>1034.515869</ele><time>2007-05-20T09:51:49Z</time></trkpt>
<trkpt lat="46.05735856" lon="6.09581812"><ele>1033.554443</ele><time>2007-05-20T09:51:57Z</time></trkpt>
<trkpt lat="46.05742059" lon="6.09569432"><ele>1033.07373</ele><time>2007-05-20T09:52:32Z</time></trkpt>
<trkpt lat="46.05755629" lon="6.09554705"><ele>1029.709229</ele><time>2007-05-20T09:52:36Z</time></trkpt>
<trkpt lat="46.05782669" lon="6.09540397"><ele>1022.499512</ele><time>2007-05-20T09:52:40Z</time></trkpt>
<trkpt lat="46.05802534" lon="6.09531152"><ele>1019.134766</ele><time>2007-05-20T09:52:42Z</time></trkpt>
<trkpt lat="46.05824327" lon="6.09521253"><ele>1018.17334</ele><time>2007-05-20T09:52:44Z</time></trkpt>
<trkpt lat="46.05859330" lon="6.09506283"><ele>1011.925049</ele><time>2007-05-20T09:52:47Z</time></trkpt>
<trkpt lat="46.05884266" lon="6.09496602"><ele>1011.444336</ele><time>2007-05-20T09:52:49Z</time></trkpt>
<trkpt lat="46.05940970" lon="6.09473778"><ele>1006.637695</ele><time>2007-05-20T09:52:54Z</time></trkpt>
<trkpt lat="46.05990624" lon="6.09431357"><ele>1001.831055</ele><time>2007-05-20T09:52:59Z</time></trkpt>
<trkpt lat="46.06010498" lon="6.09411769"><ele>1000.38916</ele><time>2007-05-20T09:53:01Z</time></trkpt>
<trkpt lat="46.06031603" lon="6.09390998"><ele>995.101807</ele><time>2007-05-20T09:53:03Z</time></trkpt>
<trkpt lat="46.06053857" lon="6.09368602"><ele>991.737305</ele><time>2007-05-20T09:53:05Z</time></trkpt>
<trkpt lat="46.06087603" lon="6.09335929"><ele>987.891846</ele><time>2007-05-20T09:53:08Z</time></trkpt>
<trkpt lat="46.06122144" lon="6.09311127"><ele>984.046631</ele><time>2007-05-20T09:53:11Z</time></trkpt>
<trkpt lat="46.06147567" lon="6.09298705"><ele>980.682129</ele><time>2007-05-20T09:53:13Z</time></trkpt>
<trkpt lat="46.06172796" lon="6.09288504"><ele>979.23999</ele><time>2007-05-20T09:53:15Z</time></trkpt>
<trkpt lat="46.06224102" lon="6.09286367"><ele>971.549316</ele><time>2007-05-20T09:53:19Z</time></trkpt>
<trkpt lat="46.06279674" lon="6.09298563"><ele>965.301025</ele><time>2007-05-20T09:53:23Z</time></trkpt>
<trkpt lat="46.06307686" lon="6.09305000"><ele>962.416992</ele><time>2007-05-20T09:53:25Z</time></trkpt>
<trkpt lat="46.06334190" lon="6.09309149"><ele>960.975098</ele><time>2007-05-20T09:53:27Z</time></trkpt>
<trkpt lat="46.06347249" lon="6.09309987"><ele>957.610596</ele><time>2007-05-20T09:53:28Z</time></trkpt>
<trkpt lat="46.06360383" lon="6.09309719"><ele>956.168457</ele><time>2007-05-20T09:53:29Z</time></trkpt>
<trkpt lat="46.06399778" lon="6.09297657"><ele>950.400635</ele><time>2007-05-20T09:53:32Z</time></trkpt>
<trkpt lat="46.06425058" lon="6.09282813"><ele>948.958496</ele><time>2007-05-20T09:53:34Z</time></trkpt>
<trkpt lat="46.06437296" lon="6.09275579"><ele>947.516602</ele><time>2007-05-20T09:53:35Z</time></trkpt>
<trkpt lat="46.06490856" lon="6.09268078"><ele>941.748779</ele><time>2007-05-20T09:53:39Z</time></trkpt>
<trkpt lat="46.06517938" lon="6.09281329"><ele>938.384033</ele><time>2007-05-20T09:53:41Z</time></trkpt>
<trkpt lat="46.06556579" lon="6.09306115"><ele>934.538818</ele><time>2007-05-20T09:53:44Z</time></trkpt>
<trkpt lat="46.06592847" lon="6.09332652"><ele>931.654785</ele><time>2007-05-20T09:53:47Z</time></trkpt>
<trkpt lat="46.06627297" lon="6.09359189"><ele>927.329102</ele><time>2007-05-20T09:53:50Z</time></trkpt>
<trkpt lat="46.06657145" lon="6.09384100"><ele>924.445068</ele><time>2007-05-20T09:53:53Z</time></trkpt>
<trkpt lat="46.06665384" lon="6.09390956"><ele>923.483643</ele><time>2007-05-20T09:53:54Z</time></trkpt>
<trkpt lat="46.06696774" lon="6.09385508"><ele>919.638428</ele><time>2007-05-20T09:53:58Z</time></trkpt>
<trkpt lat="46.06698233" lon="6.09346038"><ele>916.754395</ele><time>2007-05-20T09:54:01Z</time></trkpt>
<trkpt lat="46.06694008" lon="6.09332694"><ele>915.793213</ele><time>2007-05-20T09:54:02Z</time></trkpt>
<trkpt lat="46.06683958" lon="6.09306819"><ele>914.831787</ele><time>2007-05-20T09:54:04Z</time></trkpt>
<trkpt lat="46.06662534" lon="6.09257466"><ele>913.389893</ele><time>2007-05-20T09:54:08Z</time></trkpt>
<trkpt lat="46.06653289" lon="6.09233033"><ele>912.428467</ele><time>2007-05-20T09:54:10Z</time></trkpt>
<trkpt lat="46.06647070" lon="6.09207694"><ele>911.467285</ele><time>2007-05-20T09:54:12Z</time></trkpt>
<trkpt lat="46.06646994" lon="6.09169565"><ele>909.063965</ele><time>2007-05-20T09:54:15Z</time></trkpt>
<trkpt lat="46.06651956" lon="6.09139164"><ele>905.699219</ele><time>2007-05-20T09:54:18Z</time></trkpt>
<trkpt lat="46.06669567" lon="6.09116415"><ele>904.737793</ele><time>2007-05-20T09:54:25Z</time></trkpt>
<trkpt lat="46.06694830" lon="6.09134554"><ele>902.815186</ele><time>2007-05-20T09:54:30Z</time></trkpt>
<trkpt lat="46.06786025" lon="6.09219044"><ele>899.931396</ele><time>2007-05-20T09:54:46Z</time></trkpt>
<trkpt lat="46.06870330" lon="6.09310758"><ele>898.008789</ele><time>2007-05-20T09:55:01Z</time></trkpt>
<trkpt lat="46.06884277" lon="6.09342484"><ele>895.124756</ele><time>2007-05-20T09:55:05Z</time></trkpt>
<trkpt lat="46.06886373" lon="6.09352450"><ele>895.124756</ele><time>2007-05-20T09:55:06Z</time></trkpt>
<trkpt lat="46.06893179" lon="6.09387168"><ele>891.76001</ele><time>2007-05-20T09:55:10Z</time></trkpt>
<trkpt lat="46.06898652" lon="6.09418256"><ele>887.434082</ele><time>2007-05-20T09:55:14Z</time></trkpt>
<trkpt lat="46.06902055" lon="6.09432505"><ele>885.992188</ele><time>2007-05-20T09:55:16Z</time></trkpt>
<trkpt lat="46.06911720" lon="6.09461037"><ele>882.146973</ele><time>2007-05-20T09:55:19Z</time></trkpt>
<trkpt lat="46.06915299" lon="6.09471423"><ele>882.146973</ele><time>2007-05-20T09:55:20Z</time></trkpt>
<trkpt lat="46.06939347" lon="6.09547505"><ele>881.66626</ele><time>2007-05-20T09:55:30Z</time></trkpt>
<trkpt lat="46.06950377" lon="6.09583430"><ele>878.301758</ele><time>2007-05-20T09:55:38Z</time></trkpt>
<trkpt lat="46.06953587" lon="6.09601250"><ele>877.340576</ele><time>2007-05-20T09:55:40Z</time></trkpt>
<trkpt lat="46.06964995" lon="6.09633688"><ele>875.898193</ele><time>2007-05-20T09:55:44Z</time></trkpt>
<trkpt lat="46.06977870" lon="6.09651374"><ele>874.456299</ele><time>2007-05-20T09:55:47Z</time></trkpt>
<trkpt lat="46.06996469" lon="6.09665648"><ele>870.130371</ele><time>2007-05-20T09:55:51Z</time></trkpt>
<trkpt lat="46.07017416" lon="6.09710089"><ele>868.207764</ele><time>2007-05-20T09:56:00Z</time></trkpt>
<trkpt lat="46.07021456" lon="6.09714800"><ele>867.246582</ele><time>2007-05-20T09:56:01Z</time></trkpt>
<trkpt lat="46.07042394" lon="6.09752988"><ele>864.843262</ele><time>2007-05-20T09:56:08Z</time></trkpt>
<trkpt lat="46.07082719" lon="6.09797713"><ele>862.920654</ele><time>2007-05-20T09:56:19Z</time></trkpt>
<trkpt lat="46.07093800" lon="6.09808744"><ele>860.998047</ele><time>2007-05-20T09:56:27Z</time></trkpt>
<trkpt lat="46.07096834" lon="6.09812616"><ele>860.517334</ele><time>2007-05-20T09:56:38Z</time></trkpt>
<trkpt lat="46.07102827" lon="6.09821258"><ele>859.555908</ele><time>2007-05-20T09:57:25Z</time></trkpt>
<trkpt lat="46.07111226" lon="6.09828039"><ele>859.075195</ele><time>2007-05-20T09:57:33Z</time></trkpt>
<trkpt lat="46.07128157" lon="6.09844476"><ele>856.671875</ele><time>2007-05-20T09:57:43Z</time></trkpt>
<trkpt lat="46.07137268" lon="6.09853956"><ele>855.22998</ele><time>2007-05-20T09:57:48Z</time></trkpt>
<trkpt lat="46.07145407" lon="6.09867459"><ele>851.865479</ele><time>2007-05-20T09:57:52Z</time></trkpt>
<trkpt lat="46.07147578" lon="6.09872614"><ele>851.384766</ele><time>2007-05-20T09:57:53Z</time></trkpt>
<trkpt lat="46.07164166" lon="6.09914314"><ele>851.865479</ele><time>2007-05-20T09:58:03Z</time></trkpt>
<trkpt lat="46.07171995" lon="6.09958654"><ele>849.462158</ele><time>2007-05-20T09:58:14Z</time></trkpt>
<trkpt lat="46.07182179" lon="6.09986247"><ele>849.462158</ele><time>2007-05-20T09:58:24Z</time></trkpt>
<trkpt lat="46.07199772" lon="6.10026472"><ele>848.020264</ele><time>2007-05-20T09:58:34Z</time></trkpt>
<trkpt lat="46.07213468" lon="6.10064576"><ele>849.462158</ele><time>2007-05-20T09:58:43Z</time></trkpt>
<trkpt lat="46.07244029" lon="6.10077652"><ele>850.423584</ele><time>2007-05-20T09:58:53Z</time></trkpt>
<trkpt lat="46.07252738" lon="6.10085699"><ele>847.058838</ele><time>2007-05-20T09:58:56Z</time></trkpt>
<trkpt lat="46.07260943" lon="6.10095757"><ele>846.097656</ele><time>2007-05-20T09:58:58Z</time></trkpt>
<trkpt lat="46.07279685" lon="6.10119729"><ele>844.175049</ele><time>2007-05-20T09:59:03Z</time></trkpt>
<trkpt lat="46.07297597" lon="6.10134498"><ele>842.73291</ele><time>2007-05-20T09:59:07Z</time></trkpt>
<trkpt lat="46.07343690" lon="6.10171789"><ele>840.810059</ele><time>2007-05-20T09:59:17Z</time></trkpt>
<trkpt lat="46.07357327" lon="6.10184907"><ele>837.445557</ele><time>2007-05-20T09:59:20Z</time></trkpt>
<trkpt lat="46.07367528" lon="6.10192962"><ele>836.484375</ele><time>2007-05-20T09:59:22Z</time></trkpt>
<trkpt lat="46.07394333" lon="6.10218342"><ele>837.92627</ele><time>2007-05-20T09:59:28Z</time></trkpt>
<trkpt lat="46.07404358" lon="6.10230018"><ele>837.92627</ele><time>2007-05-20T09:59:31Z</time></trkpt>
<trkpt lat="46.07445220" lon="6.10299245"><ele>838.406982</ele><time>2007-05-20T09:59:44Z</time></trkpt>
<trkpt lat="46.07483357" lon="6.10356962"><ele>838.406982</ele><time>2007-05-20T09:59:58Z</time></trkpt>
<trkpt lat="46.07507396" lon="6.10382267"><ele>836.003662</ele><time>2007-05-20T10:00:03Z</time></trkpt>
<trkpt lat="46.07517346" lon="6.10390716"><ele>834.081055</ele><time>2007-05-20T10:00:05Z</time></trkpt>
<trkpt lat="46.07529977" lon="6.10403608"><ele>832.158447</ele><time>2007-05-20T10:00:08Z</time></trkpt>
<trkpt lat="46.07553195" lon="6.10411864"><ele>830.716553</ele><time>2007-05-20T10:00:12Z</time></trkpt>
<trkpt lat="46.07606144" lon="6.10408922"><ele>826.871094</ele><time>2007-05-20T10:00:20Z</time></trkpt>
<trkpt lat="46.07644348" lon="6.10412844"><ele>823.025879</ele><time>2007-05-20T10:00:26Z</time></trkpt>
<trkpt lat="46.07661540" lon="6.10415887"><ele>823.506592</ele><time>2007-05-20T10:00:33Z</time></trkpt>
<trkpt lat="46.07672269" lon="6.10416826"><ele>823.025879</ele><time>2007-05-20T10:00:45Z</time></trkpt>
<trkpt lat="46.07675487" lon="6.10422743"><ele>823.025879</ele><time>2007-05-20T10:01:01Z</time></trkpt>
<trkpt lat="46.07676158" lon="6.10421914"><ele>821.58374</ele><time>2007-05-20T10:10:31Z</time></trkpt>
<trkpt lat="46.07677474" lon="6.10419265"><ele>821.58374</ele><time>2007-05-20T10:10:46Z</time></trkpt>
<trkpt lat="46.07680659" lon="6.10417220"><ele>822.064453</ele><time>2007-05-20T10:11:15Z</time></trkpt>
<trkpt lat="46.07689468" lon="6.10418569"><ele>820.141846</ele><time>2007-05-20T10:11:31Z</time></trkpt>
<trkpt lat="46.07692829" lon="6.10419449"><ele>820.141846</ele><time>2007-05-20T10:11:32Z</time></trkpt>
<trkpt lat="46.07719308" lon="6.10436356"><ele>816.296631</ele><time>2007-05-20T10:11:37Z</time></trkpt>
<trkpt lat="46.07725594" lon="6.10440823"><ele>816.296631</ele><time>2007-05-20T10:11:38Z</time></trkpt>
<trkpt lat="46.07731964" lon="6.10445148"><ele>817.258057</ele><time>2007-05-20T10:11:39Z</time></trkpt>
<trkpt lat="46.07761754" lon="6.10460739"><ele>816.777344</ele><time>2007-05-20T10:11:44Z</time></trkpt>
<trkpt lat="46.07833268" lon="6.10513285"><ele>816.296631</ele><time>2007-05-20T10:11:58Z</time></trkpt>
<trkpt lat="46.07838524" lon="6.10517560"><ele>815.816162</ele><time>2007-05-20T10:11:59Z</time></trkpt>
<trkpt lat="46.07902654" lon="6.10590918"><ele>816.296631</ele><time>2007-05-20T10:12:14Z</time></trkpt>
<trkpt lat="46.07926986" lon="6.10612392"><ele>815.335449</ele><time>2007-05-20T10:12:19Z</time></trkpt>
<trkpt lat="46.07991904" lon="6.10633498"><ele>813.412842</ele><time>2007-05-20T10:12:31Z</time></trkpt>
<trkpt lat="46.07999096" lon="6.10635552"><ele>811.970703</ele><time>2007-05-20T10:12:32Z</time></trkpt>
<trkpt lat="46.08021484" lon="6.10634546"><ele>810.047852</ele><time>2007-05-20T10:12:35Z</time></trkpt>
<trkpt lat="46.08096854" lon="6.10609115"><ele>808.125488</ele><time>2007-05-20T10:12:46Z</time></trkpt>
<trkpt lat="46.08109158" lon="6.10606265"><ele>808.125488</ele><time>2007-05-20T10:12:48Z</time></trkpt>
<trkpt lat="46.08147472" lon="6.10608185"><ele>804.280273</ele><time>2007-05-20T10:12:54Z</time></trkpt>
<trkpt lat="46.08157799" lon="6.10599459"><ele>802.838135</ele><time>2007-05-20T10:12:57Z</time></trkpt>
<trkpt lat="46.08159064" lon="6.10595377"><ele>802.357422</ele><time>2007-05-20T10:13:06Z</time></trkpt>
<trkpt lat="46.08160464" lon="6.10595293"><ele>799.473633</ele><time>2007-05-20T10:16:13Z</time></trkpt>
<trkpt lat="46.08159467" lon="6.10589535"><ele>799.473633</ele><time>2007-05-20T10:16:26Z</time></trkpt>
<trkpt lat="46.08170346" lon="6.10595235"><ele>798.512207</ele><time>2007-05-20T10:16:31Z</time></trkpt>
<trkpt lat="46.08192215" lon="6.10609107"><ele>798.031738</ele><time>2007-05-20T10:16:39Z</time></trkpt>
<trkpt lat="46.08214737" lon="6.10578815"><ele>794.666748</ele><time>2007-05-20T10:16:47Z</time></trkpt>
<trkpt lat="46.08223127" lon="6.10582536"><ele>796.109131</ele><time>2007-05-20T10:16:49Z</time></trkpt>
<trkpt lat="46.08247929" lon="6.10596308"><ele>797.070313</ele><time>2007-05-20T10:16:55Z</time></trkpt>
<trkpt lat="46.08308497" lon="6.10641427"><ele>798.031738</ele><time>2007-05-20T10:17:10Z</time></trkpt>
<trkpt lat="46.08334363" lon="6.10681116"><ele>796.589844</ele><time>2007-05-20T10:17:19Z</time></trkpt>
<trkpt lat="46.08347439" lon="6.10693479"><ele>792.744385</ele><time>2007-05-20T10:17:22Z</time></trkpt>
<trkpt lat="46.08378863" lon="6.10697268"><ele>789.379639</ele><time>2007-05-20T10:17:26Z</time></trkpt>
<trkpt lat="46.08409666" lon="6.10696178"><ele>785.534424</ele><time>2007-05-20T10:17:29Z</time></trkpt>
<trkpt lat="46.08450419" lon="6.10692155"><ele>784.092529</ele><time>2007-05-20T10:17:32Z</time></trkpt>
<trkpt lat="46.08462255" lon="6.10694175"><ele>783.611816</ele><time>2007-05-20T10:17:33Z</time></trkpt>
<trkpt lat="46.08489839" lon="6.10706605"><ele>781.689209</ele><time>2007-05-20T10:17:36Z</time></trkpt>
<trkpt lat="46.08497006" lon="6.10710125"><ele>781.20874</ele><time>2007-05-20T10:17:37Z</time></trkpt>
<trkpt lat="46.08524373" lon="6.10730334"><ele>780.728027</ele><time>2007-05-20T10:17:41Z</time></trkpt>
<trkpt lat="46.08552695" lon="6.10750845"><ele>779.285645</ele><time>2007-05-20T10:17:45Z</time></trkpt>
<trkpt lat="46.08559652" lon="6.10754776"><ele>779.285645</ele><time>2007-05-20T10:17:46Z</time></trkpt>
<trkpt lat="46.08596767" lon="6.10760744"><ele>779.766357</ele><time>2007-05-20T10:17:51Z</time></trkpt>
<trkpt lat="46.08617328" lon="6.10768413"><ele>778.805176</ele><time>2007-05-20T10:17:54Z</time></trkpt>
<trkpt lat="46.08636883" lon="6.10779938"><ele>779.285645</ele><time>2007-05-20T10:17:57Z</time></trkpt>
<trkpt lat="46.08661509" lon="6.10796769"><ele>778.805176</ele><time>2007-05-20T10:18:01Z</time></trkpt>
<trkpt lat="46.08707073" lon="6.10796694"><ele>779.285645</ele><time>2007-05-20T10:18:07Z</time></trkpt>
<trkpt lat="46.08733384" lon="6.10807716"><ele>777.84375</ele><time>2007-05-20T10:18:11Z</time></trkpt>
<trkpt lat="46.08740668" lon="6.10808143"><ele>777.84375</ele><time>2007-05-20T10:18:12Z</time></trkpt>
<trkpt lat="46.08803297" lon="6.10814237"><ele>780.728027</ele><time>2007-05-20T10:18:22Z</time></trkpt>
<trkpt lat="46.08838895" lon="6.10829316"><ele>781.20874</ele><time>2007-05-20T10:18:30Z</time></trkpt>
<trkpt lat="46.08866832" lon="6.10823415"><ele>777.363281</ele><time>2007-05-20T10:18:35Z</time></trkpt>
<trkpt lat="46.08903327" lon="6.10816156"><ele>772.556641</ele><time>2007-05-20T10:18:42Z</time></trkpt>
<trkpt lat="46.08906462" lon="6.10810272"><ele>773.037354</ele><time>2007-05-20T10:18:43Z</time></trkpt>
<trkpt lat="46.08910443" lon="6.10803835"><ele>772.556641</ele><time>2007-05-20T10:18:44Z</time></trkpt>
<trkpt lat="46.08956644" lon="6.10810742"><ele>770.634033</ele><time>2007-05-20T10:18:52Z</time></trkpt>
<trkpt lat="46.09014597" lon="6.10851486"><ele>769.672852</ele><time>2007-05-20T10:19:01Z</time></trkpt>
<trkpt lat="46.09034537" lon="6.10876573"><ele>769.672852</ele><time>2007-05-20T10:19:05Z</time></trkpt>
<trkpt lat="46.09104266" lon="6.10967467"><ele>766.788818</ele><time>2007-05-20T10:19:21Z</time></trkpt>
<trkpt lat="46.09165513" lon="6.11023374"><ele>763.424072</ele><time>2007-05-20T10:19:30Z</time></trkpt>
<trkpt lat="46.09179167" lon="6.11035234"><ele>761.982178</ele><time>2007-05-20T10:19:32Z</time></trkpt>
<trkpt lat="46.09201656" lon="6.11069106"><ele>758.617432</ele><time>2007-05-20T10:19:36Z</time></trkpt>
<trkpt lat="46.09204388" lon="6.11081846"><ele>758.617432</ele><time>2007-05-20T10:19:37Z</time></trkpt>
<trkpt lat="46.09206224" lon="6.11095282"><ele>758.136963</ele><time>2007-05-20T10:19:38Z</time></trkpt>
<trkpt lat="46.09213072" lon="6.11146764"><ele>756.214111</ele><time>2007-05-20T10:19:42Z</time></trkpt>
<trkpt lat="46.09242626" lon="6.11224573"><ele>752.849609</ele><time>2007-05-20T10:19:49Z</time></trkpt>
<trkpt lat="46.09273463" lon="6.11292022"><ele>749.004395</ele><time>2007-05-20T10:19:55Z</time></trkpt>
<trkpt lat="46.09322330" lon="6.11378163"><ele>749.004395</ele><time>2007-05-20T10:20:04Z</time></trkpt>
<trkpt lat="46.09345280" lon="6.11399730"><ele>749.004395</ele><time>2007-05-20T10:20:08Z</time></trkpt>
<trkpt lat="46.09454898" lon="6.11437457"><ele>747.562256</ele><time>2007-05-20T10:20:25Z</time></trkpt>
<trkpt lat="46.09480404" lon="6.11463868"><ele>747.081543</ele><time>2007-05-20T10:20:30Z</time></trkpt>
<trkpt lat="46.09499792" lon="6.11498108"><ele>745.639648</ele><time>2007-05-20T10:20:35Z</time></trkpt>
<trkpt lat="46.09511786" lon="6.11516758"><ele>745.158936</ele><time>2007-05-20T10:20:38Z</time></trkpt>
<trkpt lat="46.09528055" lon="6.11535056"><ele>743.236328</ele><time>2007-05-20T10:20:41Z</time></trkpt>
<trkpt lat="46.09547962" lon="6.11549908"><ele>741.313721</ele><time>2007-05-20T10:20:44Z</time></trkpt>
<trkpt lat="46.09564902" lon="6.11555734"><ele>741.794434</ele><time>2007-05-20T10:20:52Z</time></trkpt>
<trkpt lat="46.09565347" lon="6.11552808"><ele>741.794434</ele><time>2007-05-20T10:21:06Z</time></trkpt>
<trkpt lat="46.09569755" lon="6.11540906"><ele>741.313721</ele><time>2007-05-20T10:21:19Z</time></trkpt>
<trkpt lat="46.09583770" lon="6.11523832"><ele>740.352539</ele><time>2007-05-20T10:21:51Z</time></trkpt>
<trkpt lat="46.09599017" lon="6.11506322"><ele>738.429932</ele><time>2007-05-20T10:21:56Z</time></trkpt>
<trkpt lat="46.09618932" lon="6.11495342"><ele>733.623291</ele><time>2007-05-20T10:22:01Z</time></trkpt>
<trkpt lat="46.09639459" lon="6.11460222"><ele>731.219971</ele><time>2007-05-20T10:22:08Z</time></trkpt>
<trkpt lat="46.09648445" lon="6.11395857"><ele>730.739258</ele><time>2007-05-20T10:22:17Z</time></trkpt>
<trkpt lat="46.09649459" lon="6.11360159"><ele>726.41333</ele><time>2007-05-20T10:22:22Z</time></trkpt>
<trkpt lat="46.09647648" lon="6.11333580"><ele>723.048828</ele><time>2007-05-20T10:22:25Z</time></trkpt>
<trkpt lat="46.09644027" lon="6.11290094"><ele>720.164795</ele><time>2007-05-20T10:22:31Z</time></trkpt>
<trkpt lat="46.09646559" lon="6.11286524"><ele>719.684326</ele><time>2007-05-20T10:22:33Z</time></trkpt>
<trkpt lat="46.09650129" lon="6.11290648"><ele>719.203613</ele><time>2007-05-20T10:22:35Z</time></trkpt>
<trkpt lat="46.09677723" lon="6.11331736"><ele>714.877441</ele><time>2007-05-20T10:22:42Z</time></trkpt>
<trkpt lat="46.09687789" lon="6.11346924"><ele>714.877441</ele><time>2007-05-20T10:22:44Z</time></trkpt>
<trkpt lat="46.09708434" lon="6.11368666"><ele>711.512939</ele><time>2007-05-20T10:22:48Z</time></trkpt>
<trkpt lat="46.09714896" lon="6.11371944"><ele>711.512939</ele><time>2007-05-20T10:22:49Z</time></trkpt>
<trkpt lat="46.09735206" lon="6.11379513"><ele>711.032227</ele><time>2007-05-20T10:22:52Z</time></trkpt>
<trkpt lat="46.09761936" lon="6.11355423"><ele>710.070801</ele><time>2007-05-20T10:22:59Z</time></trkpt>
<trkpt lat="46.09765389" lon="6.11329355"><ele>707.187012</ele><time>2007-05-20T10:23:02Z</time></trkpt>
<trkpt lat="46.09765490" lon="6.11293187"><ele>702.380371</ele><time>2007-05-20T10:23:05Z</time></trkpt>
<trkpt lat="46.09764408" lon="6.11264546"><ele>699.496338</ele><time>2007-05-20T10:23:07Z</time></trkpt>
<trkpt lat="46.09756152" lon="6.11210525"><ele>699.015625</ele><time>2007-05-20T10:23:11Z</time></trkpt>
<trkpt lat="46.09756060" lon="6.11177333"><ele>697.57373</ele><time>2007-05-20T10:23:14Z</time></trkpt>
<trkpt lat="46.09756504" lon="6.11165464"><ele>695.17041</ele><time>2007-05-20T10:23:15Z</time></trkpt>
<trkpt lat="46.09755289" lon="6.11140754"><ele>691.805908</ele><time>2007-05-20T10:23:17Z</time></trkpt>
<trkpt lat="46.09764677" lon="6.11094830"><ele>687.47998</ele><time>2007-05-20T10:23:21Z</time></trkpt>
<trkpt lat="46.09774617" lon="6.11073783"><ele>686.999268</ele><time>2007-05-20T10:23:23Z</time></trkpt>
<trkpt lat="46.09783905" lon="6.11038595"><ele>683.153809</ele><time>2007-05-20T10:23:26Z</time></trkpt>
<trkpt lat="46.09791918" lon="6.10997717"><ele>678.347412</ele><time>2007-05-20T10:23:29Z</time></trkpt>
<trkpt lat="46.09799612" lon="6.10969378"><ele>677.866699</ele><time>2007-05-20T10:23:31Z</time></trkpt>
<trkpt lat="46.09812286" lon="6.10906505"><ele>676.905518</ele><time>2007-05-20T10:23:38Z</time></trkpt>
<trkpt lat="46.09803963" lon="6.10891468"><ele>676.424805</ele><time>2007-05-20T10:23:44Z</time></trkpt>
<trkpt lat="46.09806075" lon="6.10876188"><ele>674.98291</ele><time>2007-05-20T10:23:48Z</time></trkpt>
<trkpt lat="46.09817709" lon="6.10850765"><ele>672.57959</ele><time>2007-05-20T10:23:52Z</time></trkpt>
<trkpt lat="46.09840658" lon="6.10800809"><ele>670.656982</ele><time>2007-05-20T10:24:00Z</time></trkpt>
<trkpt lat="46.09847825" lon="6.10777206"><ele>669.215088</ele><time>2007-05-20T10:24:03Z</time></trkpt>
<trkpt lat="46.09846685" lon="6.10680512"><ele>668.253662</ele><time>2007-05-20T10:24:13Z</time></trkpt>
<trkpt lat="46.09852024" lon="6.10643959"><ele>666.330811</ele><time>2007-05-20T10:24:17Z</time></trkpt>
<trkpt lat="46.09855729" lon="6.10635283"><ele>665.369629</ele><time>2007-05-20T10:24:18Z</time></trkpt>
<trkpt lat="46.09867623" lon="6.10608034"><ele>664.408203</ele><time>2007-05-20T10:24:21Z</time></trkpt>
<trkpt lat="46.09881529" lon="6.10584212"><ele>663.92749</ele><time>2007-05-20T10:24:24Z</time></trkpt>
<trkpt lat="46.09875284" lon="6.10548120"><ele>664.408203</ele><time>2007-05-20T10:24:31Z</time></trkpt>
<trkpt lat="46.09863952" lon="6.10530904"><ele>664.408203</ele><time>2007-05-20T10:24:35Z</time></trkpt>
<trkpt lat="46.09865972" lon="6.10525263"><ele>663.447021</ele><time>2007-05-20T10:24:36Z</time></trkpt>
<trkpt lat="46.09877346" lon="6.10501089"><ele>662.966309</ele><time>2007-05-20T10:24:40Z</time></trkpt>
<trkpt lat="46.09871387" lon="6.10470110"><ele>662.966309</ele><time>2007-05-20T10:24:46Z</time></trkpt>
<trkpt lat="46.09856953" lon="6.10454989"><ele>662.485596</ele><time>2007-05-20T10:24:50Z</time></trkpt>
<trkpt lat="46.09870113" lon="6.10419366"><ele>659.601807</ele><time>2007-05-20T10:24:57Z</time></trkpt>
<trkpt lat="46.09883582" lon="6.10418184"><ele>659.121094</ele><time>2007-05-20T10:24:59Z</time></trkpt>
<trkpt lat="46.09898267" lon="6.10420832"><ele>658.159912</ele><time>2007-05-20T10:25:01Z</time></trkpt>
<trkpt lat="46.09999906" lon="6.10439759"><ele>660.562988</ele><time>2007-05-20T10:25:16Z</time></trkpt>
<trkpt lat="46.10016142" lon="6.10424856"><ele>661.043701</ele><time>2007-05-20T10:25:22Z</time></trkpt>
<trkpt lat="46.10019059" lon="6.10414286"><ele>661.524414</ele><time>2007-05-20T10:25:28Z</time></trkpt>
<trkpt lat="46.10012638" lon="6.10402543"><ele>660.562988</ele><time>2007-05-20T10:25:32Z</time></trkpt>
<trkpt lat="46.09980477" lon="6.10382577"><ele>660.082275</ele><time>2007-05-20T10:25:40Z</time></trkpt>
<trkpt lat="46.09969983" lon="6.10331674"><ele>659.601807</ele><time>2007-05-20T10:25:48Z</time></trkpt>
<trkpt lat="46.09978650" lon="6.10320878"><ele>657.679199</ele><time>2007-05-20T10:25:50Z</time></trkpt>
<trkpt lat="46.10028463" lon="6.10279287"><ele>659.121094</ele><time>2007-05-20T10:26:00Z</time></trkpt>
<trkpt lat="46.10048957" lon="6.10273194"><ele>658.159912</ele><time>2007-05-20T10:26:04Z</time></trkpt>
<trkpt lat="46.10103473" lon="6.10220304"><ele>655.756592</ele><time>2007-05-20T10:26:15Z</time></trkpt>
<trkpt lat="46.10122198" lon="6.10200556"><ele>655.756592</ele><time>2007-05-20T10:26:19Z</time></trkpt>
<trkpt lat="46.10181517" lon="6.10169023"><ele>654.314697</ele><time>2007-05-20T10:26:30Z</time></trkpt>
<trkpt lat="46.10269267" lon="6.10143484"><ele>654.314697</ele><time>2007-05-20T10:26:45Z</time></trkpt>
<trkpt lat="46.10391014" lon="6.10151748"><ele>652.391846</ele><time>2007-05-20T10:27:02Z</time></trkpt>
<trkpt lat="46.10460106" lon="6.10166358"><ele>652.872559</ele><time>2007-05-20T10:27:13Z</time></trkpt>
<trkpt lat="46.10528285" lon="6.10178193"><ele>649.988525</ele><time>2007-05-20T10:27:26Z</time></trkpt>
<trkpt lat="46.10534219" lon="6.10179484"><ele>649.988525</ele><time>2007-05-20T10:27:27Z</time></trkpt>
<trkpt lat="46.10565366" lon="6.10187916"><ele>648.546387</ele><time>2007-05-20T10:27:32Z</time></trkpt>
<trkpt lat="46.10592356" lon="6.10183985"><ele>644.701172</ele><time>2007-05-20T10:27:36Z</time></trkpt>
<trkpt lat="46.10599640" lon="6.10181345"><ele>643.259277</ele><time>2007-05-20T10:27:37Z</time></trkpt>
<trkpt lat="46.10639613" lon="6.10166492"><ele>638.452881</ele><time>2007-05-20T10:27:42Z</time></trkpt>
<trkpt lat="46.10665027" lon="6.10156517"><ele>635.088135</ele><time>2007-05-20T10:27:45Z</time></trkpt>
<trkpt lat="46.10700332" lon="6.10142578"><ele>632.204102</ele><time>2007-05-20T10:27:49Z</time></trkpt>
<trkpt lat="46.10718126" lon="6.10135462"><ele>631.24292</ele><time>2007-05-20T10:27:51Z</time></trkpt>
<trkpt lat="46.10752467" lon="6.10121716"><ele>627.878174</ele><time>2007-05-20T10:27:55Z</time></trkpt>
<trkpt lat="46.10787302" lon="6.10107643"><ele>624.032959</ele><time>2007-05-20T10:27:59Z</time></trkpt>
<trkpt lat="46.10814418" lon="6.10096939"><ele>620.668457</ele><time>2007-05-20T10:28:02Z</time></trkpt>
<trkpt lat="46.10842707" lon="6.10085439"><ele>617.303711</ele><time>2007-05-20T10:28:05Z</time></trkpt>
<trkpt lat="46.10882428" lon="6.10068315"><ele>613.458496</ele><time>2007-05-20T10:28:09Z</time></trkpt>
<trkpt lat="46.10930976" lon="6.10049967"><ele>610.574463</ele><time>2007-05-20T10:28:15Z</time></trkpt>
<trkpt lat="46.10975233" lon="6.10033614"><ele>607.209961</ele><time>2007-05-20T10:28:22Z</time></trkpt>
<trkpt lat="46.10980857" lon="6.10032004"><ele>606.729248</ele><time>2007-05-20T10:28:23Z</time></trkpt>
<trkpt lat="46.10998652" lon="6.10024695"><ele>604.806641</ele><time>2007-05-20T10:28:29Z</time></trkpt>
<trkpt lat="46.11017662" lon="6.10016347"><ele>604.326172</ele><time>2007-05-20T10:28:38Z</time></trkpt>
<trkpt lat="46.11019464" lon="6.10014838"><ele>604.326172</ele><time>2007-05-20T10:28:41Z</time></trkpt>
<trkpt lat="46.11046479" lon="6.10005685"><ele>600.961182</ele><time>2007-05-20T10:28:50Z</time></trkpt>
<trkpt lat="46.11099218" lon="6.09985728"><ele>597.59668</ele><time>2007-05-20T10:28:59Z</time></trkpt>
<trkpt lat="46.11135780" lon="6.09971018"><ele>594.712646</ele><time>2007-05-20T10:29:05Z</time></trkpt>
<trkpt lat="46.11160004" lon="6.09962258"><ele>593.751465</ele><time>2007-05-20T10:29:11Z</time></trkpt>
<trkpt lat="46.11174462" lon="6.09953189"><ele>592.30957</ele><time>2007-05-20T10:29:14Z</time></trkpt>
<trkpt lat="46.11207177" lon="6.09942310"><ele>587.502686</ele><time>2007-05-20T10:29:19Z</time></trkpt>
<trkpt lat="46.11239405" lon="6.09929728"><ele>584.618896</ele><time>2007-05-20T10:29:23Z</time></trkpt>
<trkpt lat="46.11247494" lon="6.09926669"><ele>584.138184</ele><time>2007-05-20T10:29:24Z</time></trkpt>
<trkpt lat="46.11287668" lon="6.09909243"><ele>580.773682</ele><time>2007-05-20T10:29:29Z</time></trkpt>
<trkpt lat="46.11295472" lon="6.09905555"><ele>580.773682</ele><time>2007-05-20T10:29:30Z</time></trkpt>
<trkpt lat="46.11322453" lon="6.09893334"><ele>579.812256</ele><time>2007-05-20T10:29:34Z</time></trkpt>
<trkpt lat="46.11354665" lon="6.09881633"><ele>577.889648</ele><time>2007-05-20T10:29:39Z</time></trkpt>
<trkpt lat="46.11382275" lon="6.09863545"><ele>575.967041</ele><time>2007-05-20T10:29:43Z</time></trkpt>
<trkpt lat="46.11459539" lon="6.09817386"><ele>573.083252</ele><time>2007-05-20T10:29:53Z</time></trkpt>
<trkpt lat="46.11557440" lon="6.09763163"><ele>570.679688</ele><time>2007-05-20T10:30:07Z</time></trkpt>
<trkpt lat="46.11615987" lon="6.09735235"><ele>566.834473</ele><time>2007-05-20T10:30:19Z</time></trkpt>
<trkpt lat="46.11625065" lon="6.09730365"><ele>566.35376</ele><time>2007-05-20T10:30:21Z</time></trkpt>
<trkpt lat="46.11638459" lon="6.09737364"><ele>565.392578</ele><time>2007-05-20T10:30:25Z</time></trkpt>
<trkpt lat="46.11638124" lon="6.09745687"><ele>564.431152</ele><time>2007-05-20T10:30:26Z</time></trkpt>
<trkpt lat="46.11635107" lon="6.09773959"><ele>562.508545</ele><time>2007-05-20T10:30:29Z</time></trkpt>
<trkpt lat="46.11634302" lon="6.09784286"><ele>561.547363</ele><time>2007-05-20T10:30:30Z</time></trkpt>
<trkpt lat="46.11639616" lon="6.09827327"><ele>560.105225</ele><time>2007-05-20T10:30:34Z</time></trkpt>
<trkpt lat="46.11654033" lon="6.09866772"><ele>560.585938</ele><time>2007-05-20T10:30:38Z</time></trkpt>
<trkpt lat="46.11674753" lon="6.09917994"><ele>563.469971</ele><time>2007-05-20T10:30:45Z</time></trkpt>
<trkpt lat="46.11711298" lon="6.10011988"><ele>563.950439</ele><time>2007-05-20T10:31:02Z</time></trkpt>
<trkpt lat="46.11758396" lon="6.10119444"><ele>563.469971</ele><time>2007-05-20T10:31:19Z</time></trkpt>
<trkpt lat="46.11766652" lon="6.10138144"><ele>563.469971</ele><time>2007-05-20T10:31:22Z</time></trkpt>
<trkpt lat="46.11783022" lon="6.10164564"><ele>563.469971</ele><time>2007-05-20T10:31:27Z</time></trkpt>
<trkpt lat="46.11811747" lon="6.10196466"><ele>567.315186</ele><time>2007-05-20T10:31:36Z</time></trkpt>
<trkpt lat="46.11877905" lon="6.10243622"><ele>570.198975</ele><time>2007-05-20T10:31:55Z</time></trkpt>
<trkpt lat="46.11948984" lon="6.10291449"><ele>568.75708</ele><time>2007-05-20T10:32:11Z</time></trkpt>
<trkpt lat="46.12054587" lon="6.10357817"><ele>569.237793</ele><time>2007-05-20T10:32:32Z</time></trkpt>
<trkpt lat="46.12073078" lon="6.10369233"><ele>569.237793</ele><time>2007-05-20T10:32:36Z</time></trkpt>
<trkpt lat="46.12083589" lon="6.10392317"><ele>568.75708</ele><time>2007-05-20T10:32:40Z</time></trkpt>
<trkpt lat="46.12098349" lon="6.10412350"><ele>568.75708</ele><time>2007-05-20T10:32:45Z</time></trkpt>
<trkpt lat="46.12162823" lon="6.10417672"><ele>568.75708</ele><time>2007-05-20T10:33:00Z</time></trkpt>
<trkpt lat="46.12230934" lon="6.10423707"><ele>565.873291</ele><time>2007-05-20T10:33:14Z</time></trkpt>
<trkpt lat="46.12252627" lon="6.10425116"><ele>563.950439</ele><time>2007-05-20T10:33:17Z</time></trkpt>
<trkpt lat="46.12267622" lon="6.10426314"><ele>561.547363</ele><time>2007-05-20T10:33:19Z</time></trkpt>
<trkpt lat="46.12295165" lon="6.10417505"><ele>559.624756</ele><time>2007-05-20T10:33:23Z</time></trkpt>
<trkpt lat="46.12323487" lon="6.10417513"><ele>556.740723</ele><time>2007-05-20T10:33:27Z</time></trkpt>
<trkpt lat="46.12371080" lon="6.10434109"><ele>553.856689</ele><time>2007-05-20T10:33:33Z</time></trkpt>
<trkpt lat="46.12422897" lon="6.10450144"><ele>550.972656</ele><time>2007-05-20T10:33:39Z</time></trkpt>
<trkpt lat="46.12465192" lon="6.10468618"><ele>548.569336</ele><time>2007-05-20T10:33:44Z</time></trkpt>
<trkpt lat="46.12497093" lon="6.10483915"><ele>546.16626</ele><time>2007-05-20T10:33:48Z</time></trkpt>
<trkpt lat="46.12602646" lon="6.10561213"><ele>543.282104</ele><time>2007-05-20T10:34:04Z</time></trkpt>
<trkpt lat="46.12621590" lon="6.10576007"><ele>541.359497</ele><time>2007-05-20T10:34:07Z</time></trkpt>
<trkpt lat="46.12713204" lon="6.10642869"><ele>537.994995</ele><time>2007-05-20T10:34:22Z</time></trkpt>
<trkpt lat="46.12784978" lon="6.10700520"><ele>535.110962</ele><time>2007-05-20T10:34:34Z</time></trkpt>
<trkpt lat="46.12829017" lon="6.10715062"><ele>531.746338</ele><time>2007-05-20T10:34:40Z</time></trkpt>
<trkpt lat="46.12836435" lon="6.10716873"><ele>531.746338</ele><time>2007-05-20T10:34:41Z</time></trkpt>
<trkpt lat="46.12851178" lon="6.10720963"><ele>531.265747</ele><time>2007-05-20T10:34:43Z</time></trkpt>
<trkpt lat="46.12885904" lon="6.10743997"><ele>527.42041</ele><time>2007-05-20T10:34:48Z</time></trkpt>
<trkpt lat="46.12899248" lon="6.10754550"><ele>526.939819</ele><time>2007-05-20T10:34:50Z</time></trkpt>
<trkpt lat="46.12966220" lon="6.10807858"><ele>525.978394</ele><time>2007-05-20T10:35:00Z</time></trkpt>
<trkpt lat="46.13061380" lon="6.10865409"><ele>524.536499</ele><time>2007-05-20T10:35:14Z</time></trkpt>
<trkpt lat="46.13168425" lon="6.10929916"><ele>523.094604</ele><time>2007-05-20T10:35:28Z</time></trkpt>
<trkpt lat="46.13258715" lon="6.10974424"><ele>521.652588</ele><time>2007-05-20T10:35:40Z</time></trkpt>
<trkpt lat="46.13323842" lon="6.11032938"><ele>523.094604</ele><time>2007-05-20T10:35:52Z</time></trkpt>
<trkpt lat="46.13353212" lon="6.11056013"><ele>524.536499</ele><time>2007-05-20T10:35:59Z</time></trkpt>
<trkpt lat="46.13430519" lon="6.11122884"><ele>522.613892</ele><time>2007-05-20T10:36:17Z</time></trkpt>
<trkpt lat="46.13513743" lon="6.11182647"><ele>520.691284</ele><time>2007-05-20T10:36:32Z</time></trkpt>
<trkpt lat="46.13589088" lon="6.11172806"><ele>521.652588</ele><time>2007-05-20T10:36:44Z</time></trkpt>
<trkpt lat="46.13626638" lon="6.11156579"><ele>520.210571</ele><time>2007-05-20T10:36:51Z</time></trkpt>
<trkpt lat="46.13649932" lon="6.11129078"><ele>519.249268</ele><time>2007-05-20T10:36:56Z</time></trkpt>
<trkpt lat="46.13660904" lon="6.11100772"><ele>517.32666</ele><time>2007-05-20T10:36:59Z</time></trkpt>
<trkpt lat="46.13670342" lon="6.11052107"><ele>513.962036</ele><time>2007-05-20T10:37:03Z</time></trkpt>
<trkpt lat="46.13675002" lon="6.10945087"><ele>510.59729</ele><time>2007-05-20T10:37:11Z</time></trkpt>
<trkpt lat="46.13676402" lon="6.10889842"><ele>511.078003</ele><time>2007-05-20T10:37:16Z</time></trkpt>
<trkpt lat="46.13694498" lon="6.10866389"><ele>510.59729</ele><time>2007-05-20T10:37:21Z</time></trkpt>
<trkpt lat="46.13737229" lon="6.10858896"><ele>509.155396</ele><time>2007-05-20T10:37:28Z</time></trkpt>
<trkpt lat="46.13753733" lon="6.10844085"><ele>509.155396</ele><time>2007-05-20T10:37:31Z</time></trkpt>
<trkpt lat="46.13792198" lon="6.10833289"><ele>510.116699</ele><time>2007-05-20T10:37:38Z</time></trkpt>
<trkpt lat="46.13880769" lon="6.10812292"><ele>507.232788</ele><time>2007-05-20T10:37:54Z</time></trkpt>
<trkpt lat="46.13908882" lon="6.10804162"><ele>505.790894</ele><time>2007-05-20T10:37:58Z</time></trkpt>
<trkpt lat="46.13935470" lon="6.10789888"><ele>504.829468</ele><time>2007-05-20T10:38:02Z</time></trkpt>
<trkpt lat="46.14047058" lon="6.10718876"><ele>502.906738</ele><time>2007-05-20T10:38:22Z</time></trkpt>
<trkpt lat="46.14085992" lon="6.10694736"><ele>500.984131</ele><time>2007-05-20T10:38:29Z</time></trkpt>
<trkpt lat="46.14119687" lon="6.10674100"><ele>500.022949</ele><time>2007-05-20T10:38:38Z</time></trkpt>
<trkpt lat="46.14123006" lon="6.10667218"><ele>500.022949</ele><time>2007-05-20T10:38:42Z</time></trkpt>
<trkpt lat="46.14123585" lon="6.10681602"><ele>498.100342</ele><time>2007-05-20T10:38:49Z</time></trkpt>
<trkpt lat="46.14124389" lon="6.10692792"><ele>497.138916</ele><time>2007-05-20T10:38:51Z</time></trkpt>
<trkpt lat="46.14135495" lon="6.10696362"><ele>494.255005</ele><time>2007-05-20T10:38:54Z</time></trkpt>
<trkpt lat="46.14159652" lon="6.10681744"><ele>490.890381</ele><time>2007-05-20T10:38:59Z</time></trkpt>
<trkpt lat="46.14186265" lon="6.10668526"><ele>487.045044</ele><time>2007-05-20T10:39:03Z</time></trkpt>
<trkpt lat="46.14220555" lon="6.10652835"><ele>483.199829</ele><time>2007-05-20T10:39:08Z</time></trkpt>
<trkpt lat="46.14244016" lon="6.10646264"><ele>480.315918</ele><time>2007-05-20T10:39:12Z</time></trkpt>
<trkpt lat="46.14270402" lon="6.10649876"><ele>478.393188</ele><time>2007-05-20T10:39:17Z</time></trkpt>
<trkpt lat="46.14289287" lon="6.10652475"><ele>478.873901</ele><time>2007-05-20T10:39:26Z</time></trkpt>
<trkpt lat="46.14300862" lon="6.10649189"><ele>478.393188</ele><time>2007-05-20T10:39:40Z</time></trkpt>
<trkpt lat="46.14398394" lon="6.10631034"><ele>478.393188</ele><time>2007-05-20T10:40:01Z</time></trkpt>
<trkpt lat="46.14408620" lon="6.10632886"><ele>477.912476</ele><time>2007-05-20T10:40:05Z</time></trkpt>
<trkpt lat="46.14417169" lon="6.10628469"><ele>477.912476</ele><time>2007-05-20T10:40:11Z</time></trkpt>
<trkpt lat="46.14408368" lon="6.10641696"><ele>477.431885</ele><time>2007-05-20T10:40:18Z</time></trkpt>
<trkpt lat="46.14364036" lon="6.10657034"><ele>476.951294</ele><time>2007-05-20T10:40:32Z</time></trkpt>
<trkpt lat="46.14331523" lon="6.10717217"><ele>477.431885</ele><time>2007-05-20T10:40:45Z</time></trkpt>
<trkpt lat="46.14329327" lon="6.10721114"><ele>476.951294</ele><time>2007-05-20T10:40:46Z</time></trkpt>
<trkpt lat="46.14338639" lon="6.10765236"><ele>476.951294</ele><time>2007-05-20T10:40:55Z</time></trkpt>
<trkpt lat="46.14343978" lon="6.10779796"><ele>477.431885</ele><time>2007-05-20T10:40:58Z</time></trkpt>
<trkpt lat="46.14328438" lon="6.10817213"><ele>476.951294</ele><time>2007-05-20T10:41:07Z</time></trkpt>
<trkpt lat="46.14318422" lon="6.10827606"><ele>477.431885</ele><time>2007-05-20T10:41:10Z</time></trkpt>
<trkpt lat="46.14318112" lon="6.10847983"><ele>477.431885</ele><time>2007-05-20T10:41:14Z</time></trkpt>
<trkpt lat="46.14323133" lon="6.10857957"><ele>476.951294</ele><time>2007-05-20T10:41:16Z</time></trkpt>
<trkpt lat="46.14353509" lon="6.10931952"><ele>477.431885</ele><time>2007-05-20T10:41:29Z</time></trkpt>
<trkpt lat="46.14349024" lon="6.10962102"><ele>477.431885</ele><time>2007-05-20T10:41:35Z</time></trkpt>
<trkpt lat="46.14342855" lon="6.10968967"><ele>477.912476</ele><time>2007-05-20T10:41:37Z</time></trkpt>
<trkpt lat="46.14302530" lon="6.11017138"><ele>477.431885</ele><time>2007-05-20T10:41:50Z</time></trkpt>
<trkpt lat="46.14290728" lon="6.11033005"><ele>477.912476</ele><time>2007-05-20T10:41:54Z</time></trkpt>
<trkpt lat="46.14288272" lon="6.11058553"><ele>477.431885</ele><time>2007-05-20T10:41:58Z</time></trkpt>
<trkpt lat="46.14288465" lon="6.11072274"><ele>477.912476</ele><time>2007-05-20T10:42:00Z</time></trkpt>
<trkpt lat="46.14289789" lon="6.11128366"><ele>478.393188</ele><time>2007-05-20T10:42:09Z</time></trkpt>
<trkpt lat="46.14288968" lon="6.11159446"><ele>478.393188</ele><time>2007-05-20T10:42:14Z</time></trkpt>
<trkpt lat="46.14291516" lon="6.11246668"><ele>478.873901</ele><time>2007-05-20T10:42:29Z</time></trkpt>
<trkpt lat="46.14300166" lon="6.11341937"><ele>478.873901</ele><time>2007-05-20T10:42:46Z</time></trkpt>
<trkpt lat="46.14303083" lon="6.11389303"><ele>479.354492</ele><time>2007-05-20T10:42:54Z</time></trkpt>
<trkpt lat="46.14304843" lon="6.11400870"><ele>478.873901</ele><time>2007-05-20T10:42:56Z</time></trkpt>
<trkpt lat="46.14312035" lon="6.11422428"><ele>478.873901</ele><time>2007-05-20T10:43:00Z</time></trkpt>
<trkpt lat="46.14312563" lon="6.11460825"><ele>479.835083</ele><time>2007-05-20T10:43:07Z</time></trkpt>
<trkpt lat="46.14307266" lon="6.11511452"><ele>479.835083</ele><time>2007-05-20T10:43:16Z</time></trkpt>
<trkpt lat="46.14306545" lon="6.11529733"><ele>479.835083</ele><time>2007-05-20T10:43:19Z</time></trkpt>
<trkpt lat="46.14297937" lon="6.11611842"><ele>480.796631</ele><time>2007-05-20T10:43:33Z</time></trkpt>
<trkpt lat="46.14294190" lon="6.11642755"><ele>480.315918</ele><time>2007-05-20T10:43:38Z</time></trkpt>
<trkpt lat="46.14283092" lon="6.11744318"><ele>481.277222</ele><time>2007-05-20T10:43:55Z</time></trkpt>
<trkpt lat="46.14283076" lon="6.11756237"><ele>481.277222</ele><time>2007-05-20T10:43:57Z</time></trkpt>
<trkpt lat="46.14281399" lon="6.11792925"><ele>481.277222</ele><time>2007-05-20T10:44:03Z</time></trkpt>
<trkpt lat="46.14278784" lon="6.11822387"><ele>482.238525</ele><time>2007-05-20T10:44:08Z</time></trkpt>
<trkpt lat="46.14271902" lon="6.11889526"><ele>482.719238</ele><time>2007-05-20T10:44:21Z</time></trkpt>
<trkpt lat="46.14270109" lon="6.11962424"><ele>482.719238</ele><time>2007-05-20T10:44:35Z</time></trkpt>
<trkpt lat="46.14279706" lon="6.11990436"><ele>484.161133</ele><time>2007-05-20T10:44:42Z</time></trkpt>
<trkpt lat="46.14286093" lon="6.11994233"><ele>483.199829</ele><time>2007-05-20T10:44:44Z</time></trkpt>
<trkpt lat="46.14298356" lon="6.11996396"><ele>482.719238</ele><time>2007-05-20T10:44:47Z</time></trkpt>
<trkpt lat="46.14374715" lon="6.12028196"><ele>483.68042</ele><time>2007-05-20T10:45:05Z</time></trkpt>
<trkpt lat="46.14377288" lon="6.12030116"><ele>483.199829</ele><time>2007-05-20T10:45:06Z</time></trkpt>
<trkpt lat="46.14380457" lon="6.12052387"><ele>483.68042</ele><time>2007-05-20T10:45:11Z</time></trkpt>
<trkpt lat="46.14373449" lon="6.12097439"><ele>483.68042</ele><time>2007-05-20T10:45:24Z</time></trkpt>
<trkpt lat="46.14368998" lon="6.12121227"><ele>482.719238</ele><time>2007-05-20T10:45:45Z</time></trkpt>
<trkpt lat="46.14380943" lon="6.12159256"><ele>484.161133</ele><time>2007-05-20T10:45:56Z</time></trkpt>
<trkpt lat="46.14370943" lon="6.12219337"><ele>483.68042</ele><time>2007-05-20T10:46:10Z</time></trkpt>
<trkpt lat="46.14341405" lon="6.12288874"><ele>483.68042</ele><time>2007-05-20T10:46:27Z</time></trkpt>
<trkpt lat="46.14305975" lon="6.12353205"><ele>484.641846</ele><time>2007-05-20T10:46:45Z</time></trkpt>
<trkpt lat="46.14260813" lon="6.12423772"><ele>486.08374</ele><time>2007-05-20T10:47:07Z</time></trkpt>
<trkpt lat="46.14235684" lon="6.12470652"><ele>487.045044</ele><time>2007-05-20T10:47:24Z</time></trkpt>
<trkpt lat="46.14235106" lon="6.12471733"><ele>487.525635</ele><time>2007-05-20T10:47:41Z</time></trkpt>
<trkpt lat="46.14234813" lon="6.12471775"><ele>486.564453</ele><time>2007-05-20T10:48:27Z</time></trkpt>
<trkpt lat="46.14233698" lon="6.12472286"><ele>485.603027</ele><time>2007-05-20T10:50:06Z</time></trkpt>
<trkpt lat="46.14231049" lon="6.12476855"><ele>486.08374</ele><time>2007-05-20T10:51:00Z</time></trkpt>
<trkpt lat="46.14209013" lon="6.12521555"><ele>486.564453</ele><time>2007-05-20T10:51:14Z</time></trkpt>
<trkpt lat="46.14167933" lon="6.12599993"><ele>488.487183</ele><time>2007-05-20T10:51:36Z</time></trkpt>
<trkpt lat="46.14126854" lon="6.12682873"><ele>488.487183</ele><time>2007-05-20T10:52:00Z</time></trkpt>
<trkpt lat="46.14110266" lon="6.12752192"><ele>489.448364</ele><time>2007-05-20T10:52:18Z</time></trkpt>
<trkpt lat="46.14107315" lon="6.12830495"><ele>490.890381</ele><time>2007-05-20T10:52:37Z</time></trkpt>
<trkpt lat="46.14105086" lon="6.12920534"><ele>489.929077</ele><time>2007-05-20T10:52:56Z</time></trkpt>
<trkpt lat="46.14106754" lon="6.13019298"><ele>489.929077</ele><time>2007-05-20T10:53:17Z</time></trkpt>
<trkpt lat="46.14120232" lon="6.13123745"><ele>488.967773</ele><time>2007-05-20T10:53:39Z</time></trkpt>
<trkpt lat="46.14107810" lon="6.13164992"><ele>489.448364</ele><time>2007-05-20T10:53:49Z</time></trkpt>
<trkpt lat="46.14105916" lon="6.13169527"><ele>489.448364</ele><time>2007-05-20T10:53:51Z</time></trkpt>
<trkpt lat="46.14108045" lon="6.13181605"><ele>488.967773</ele><time>2007-05-20T10:53:55Z</time></trkpt>
<trkpt lat="46.14153089" lon="6.13226683"><ele>491.370972</ele><time>2007-05-20T10:54:11Z</time></trkpt>
<trkpt lat="46.14187438" lon="6.13256288"><ele>493.774292</ele><time>2007-05-20T10:54:26Z</time></trkpt>
<trkpt lat="46.14226213" lon="6.13299496"><ele>494.255005</ele><time>2007-05-20T10:54:42Z</time></trkpt>
<trkpt lat="46.14273990" lon="6.13363174"><ele>491.851685</ele><time>2007-05-20T10:54:58Z</time></trkpt>
<trkpt lat="46.14322823" lon="6.13427497"><ele>488.487183</ele><time>2007-05-20T10:55:09Z</time></trkpt>
<trkpt lat="46.14393549" lon="6.13525967"><ele>485.122437</ele><time>2007-05-20T10:55:24Z</time></trkpt>
<trkpt lat="46.14483026" lon="6.13623315"><ele>485.122437</ele><time>2007-05-20T10:55:43Z</time></trkpt>
<trkpt lat="46.14498616" lon="6.13641294"><ele>485.603027</ele><time>2007-05-20T10:55:47Z</time></trkpt>
<trkpt lat="46.14521532" lon="6.13651570"><ele>485.122437</ele><time>2007-05-20T10:55:52Z</time></trkpt>
<trkpt lat="46.14547608" lon="6.13653112"><ele>484.641846</ele><time>2007-05-20T10:55:57Z</time></trkpt>
<trkpt lat="46.14566627" lon="6.13661544"><ele>485.122437</ele><time>2007-05-20T10:56:02Z</time></trkpt>
<trkpt lat="46.14566308" lon="6.13665358"><ele>485.122437</ele><time>2007-05-20T10:56:15Z</time></trkpt>
<trkpt lat="46.14565529" lon="6.13665526"><ele>484.641846</ele><time>2007-05-20T10:56:23Z</time></trkpt>
<trkpt lat="46.14560156" lon="6.13755036"><ele>483.199829</ele><time>2007-05-20T10:56:41Z</time></trkpt>
<trkpt lat="46.14561154" lon="6.13786929"><ele>482.719238</ele><time>2007-05-20T10:56:46Z</time></trkpt>
<trkpt lat="46.14574062" lon="6.13820306"><ele>482.719238</ele><time>2007-05-20T10:56:52Z</time></trkpt>
<trkpt lat="46.14639885" lon="6.13902633"><ele>481.277222</ele><time>2007-05-20T10:57:10Z</time></trkpt>
<trkpt lat="46.14688072" lon="6.13962254"><ele>479.354492</ele><time>2007-05-20T10:57:22Z</time></trkpt>
<trkpt lat="46.14736235" lon="6.14029728"><ele>475.989868</ele><time>2007-05-20T10:57:33Z</time></trkpt>
<trkpt lat="46.14792553" lon="6.14106422"><ele>473.58667</ele><time>2007-05-20T10:57:44Z</time></trkpt>
<trkpt lat="46.14819165" lon="6.14109322"><ele>473.58667</ele><time>2007-05-20T10:57:50Z</time></trkpt>
<trkpt lat="46.14826676" lon="6.14102399"><ele>474.547974</ele><time>2007-05-20T10:57:52Z</time></trkpt>
<trkpt lat="46.14844026" lon="6.14098476"><ele>474.067261</ele><time>2007-05-20T10:57:56Z</time></trkpt>
<trkpt lat="46.14931676" lon="6.14145725"><ele>471.66394</ele><time>2007-05-20T10:58:13Z</time></trkpt>
<trkpt lat="46.14972504" lon="6.14167199"><ele>471.18335</ele><time>2007-05-20T10:58:21Z</time></trkpt>
<trkpt lat="46.14986728" lon="6.14198095"><ele>471.18335</ele><time>2007-05-20T10:58:26Z</time></trkpt>
<trkpt lat="46.14988832" lon="6.14222780"><ele>470.221924</ele><time>2007-05-20T10:58:29Z</time></trkpt>
<trkpt lat="46.14991087" lon="6.14238823"><ele>470.221924</ele><time>2007-05-20T10:58:31Z</time></trkpt>
<trkpt lat="46.14995118" lon="6.14254623"><ele>468.780029</ele><time>2007-05-20T10:58:33Z</time></trkpt>
<trkpt lat="46.15044278" lon="6.14378926"><ele>468.299316</ele><time>2007-05-20T10:58:49Z</time></trkpt>
<trkpt lat="46.15045083" lon="6.14406578"><ele>468.299316</ele><time>2007-05-20T10:58:53Z</time></trkpt>
<trkpt lat="46.15034538" lon="6.14428815"><ele>468.780029</ele><time>2007-05-20T10:58:57Z</time></trkpt>
<trkpt lat="46.15015578" lon="6.14445227"><ele>468.780029</ele><time>2007-05-20T10:59:02Z</time></trkpt>
<trkpt lat="46.14989997" lon="6.14457423"><ele>468.780029</ele><time>2007-05-20T10:59:08Z</time></trkpt>
<trkpt lat="46.14975312" lon="6.14474866"><ele>468.780029</ele><time>2007-05-20T10:59:12Z</time></trkpt>
<trkpt lat="46.14980039" lon="6.14520882"><ele>467.818726</ele><time>2007-05-20T10:59:20Z</time></trkpt>
<trkpt lat="46.15034798" lon="6.14559129"><ele>466.857422</ele><time>2007-05-20T10:59:31Z</time></trkpt>
<trkpt lat="46.15035050" lon="6.14603922"><ele>466.857422</ele><time>2007-05-20T10:59:38Z</time></trkpt>
<trkpt lat="46.15032217" lon="6.14610225"><ele>466.857422</ele><time>2007-05-20T10:59:39Z</time></trkpt>
<trkpt lat="46.15025067" lon="6.14631054"><ele>466.857422</ele><time>2007-05-20T10:59:42Z</time></trkpt>
<trkpt lat="46.15012963" lon="6.14706659"><ele>463.973389</ele><time>2007-05-20T10:59:51Z</time></trkpt>
<trkpt lat="46.15010298" lon="6.14727052"><ele>463.012085</ele><time>2007-05-20T10:59:53Z</time></trkpt>
<trkpt lat="46.15016920" lon="6.14780587"><ele>460.128174</ele><time>2007-05-20T10:59:58Z</time></trkpt>
<trkpt lat="46.15034723" lon="6.14831264"><ele>458.686157</ele><time>2007-05-20T11:00:03Z</time></trkpt>
<trkpt lat="46.15049114" lon="6.14864096"><ele>460.128174</ele><time>2007-05-20T11:00:07Z</time></trkpt>
<trkpt lat="46.15061168" lon="6.14899149"><ele>463.012085</ele><time>2007-05-20T11:00:12Z</time></trkpt>
<trkpt lat="46.15078459" lon="6.14945627"><ele>465.415527</ele><time>2007-05-20T11:00:20Z</time></trkpt>
<trkpt lat="46.15086053" lon="6.14968895"><ele>465.896118</ele><time>2007-05-20T11:00:27Z</time></trkpt>
<trkpt lat="46.15115139" lon="6.14971108"><ele>462.531372</ele><time>2007-05-20T11:00:34Z</time></trkpt>
<trkpt lat="46.15204180" lon="6.14970555"><ele>459.16687</ele><time>2007-05-20T11:00:48Z</time></trkpt>
<trkpt lat="46.15238939" lon="6.14969549"><ele>457.724976</ele><time>2007-05-20T11:00:53Z</time></trkpt>
<trkpt lat="46.15278888" lon="6.14969255"><ele>457.724976</ele><time>2007-05-20T11:00:59Z</time></trkpt>
<trkpt lat="46.15308308" lon="6.14997553"><ele>457.244263</ele><time>2007-05-20T11:01:05Z</time></trkpt>
<trkpt lat="46.15356395" lon="6.15120063"><ele>453.879639</ele><time>2007-05-20T11:01:21Z</time></trkpt>
<trkpt lat="46.15359429" lon="6.15128478"><ele>453.879639</ele><time>2007-05-20T11:01:22Z</time></trkpt>
<trkpt lat="46.15395245" lon="6.15223370"><ele>449.553711</ele><time>2007-05-20T11:01:33Z</time></trkpt>
<trkpt lat="46.15452007" lon="6.15371386"><ele>447.150269</ele><time>2007-05-20T11:01:50Z</time></trkpt>
<trkpt lat="46.15454522" lon="6.15377488"><ele>447.150269</ele><time>2007-05-20T11:01:51Z</time></trkpt>
<trkpt lat="46.15490723" lon="6.15438784"><ele>444.74707</ele><time>2007-05-20T11:02:01Z</time></trkpt>
<trkpt lat="46.15520052" lon="6.15485136"><ele>441.382446</ele><time>2007-05-20T11:02:07Z</time></trkpt>
<trkpt lat="46.15550210" lon="6.15532972"><ele>440.421265</ele><time>2007-05-20T11:02:13Z</time></trkpt>
<trkpt lat="46.15557988" lon="6.15547707"><ele>440.901855</ele><time>2007-05-20T11:02:21Z</time></trkpt>
<trkpt lat="46.15556882" lon="6.15544925"><ele>440.901855</ele><time>2007-05-20T11:03:00Z</time></trkpt>
<trkpt lat="46.15563738" lon="6.15528295"><ele>440.901855</ele><time>2007-05-20T11:03:08Z</time></trkpt>
<trkpt lat="46.15599202" lon="6.15454853"><ele>441.382446</ele><time>2007-05-20T11:03:26Z</time></trkpt>
<trkpt lat="46.15622135" lon="6.15406003"><ele>442.824463</ele><time>2007-05-20T11:03:39Z</time></trkpt>
<trkpt lat="46.15646384" lon="6.15362920"><ele>443.305054</ele><time>2007-05-20T11:03:53Z</time></trkpt>
<trkpt lat="46.15679182" lon="6.15401980"><ele>443.305054</ele><time>2007-05-20T11:04:07Z</time></trkpt>
<trkpt lat="46.15727395" lon="6.15460150"><ele>440.421265</ele><time>2007-05-20T11:04:23Z</time></trkpt>
<trkpt lat="46.15775088" lon="6.15517566"><ele>440.901855</ele><time>2007-05-20T11:04:40Z</time></trkpt>
<trkpt lat="46.15811666" lon="6.15562309"><ele>440.421265</ele><time>2007-05-20T11:04:54Z</time></trkpt>
<trkpt lat="46.15855294" lon="6.15611695"><ele>438.498535</ele><time>2007-05-20T11:05:10Z</time></trkpt>
<trkpt lat="46.15872628" lon="6.15633287"><ele>437.056519</ele><time>2007-05-20T11:05:16Z</time></trkpt>
<trkpt lat="46.15913783" lon="6.15685288"><ele>433.691895</ele><time>2007-05-20T11:05:28Z</time></trkpt>
<trkpt lat="46.15952826" lon="6.15733978"><ele>430.807983</ele><time>2007-05-20T11:05:37Z</time></trkpt>
<trkpt lat="46.15981802" lon="6.15784136"><ele>431.288574</ele><time>2007-05-20T11:05:48Z</time></trkpt>
<trkpt lat="46.16012614" lon="6.15824042"><ele>430.327271</ele><time>2007-05-20T11:06:00Z</time></trkpt>
<trkpt lat="46.16072754" lon="6.15889932"><ele>428.404663</ele><time>2007-05-20T11:06:17Z</time></trkpt>
<trkpt lat="46.16147538" lon="6.15971002"><ele>428.404663</ele><time>2007-05-20T11:06:36Z</time></trkpt>
<trkpt lat="46.16178785" lon="6.16006206"><ele>427.92395</ele><time>2007-05-20T11:06:44Z</time></trkpt>
<trkpt lat="46.16176698" lon="6.16032592"><ele>428.885376</ele><time>2007-05-20T11:06:50Z</time></trkpt>
<trkpt lat="46.16121805" lon="6.16112614"><ele>427.92395</ele><time>2007-05-20T11:07:09Z</time></trkpt>
<trkpt lat="46.16067038" lon="6.16194078"><ele>429.365967</ele><time>2007-05-20T11:07:29Z</time></trkpt>
<trkpt lat="46.16016554" lon="6.16268786"><ele>429.846558</ele><time>2007-05-20T11:07:47Z</time></trkpt>
<trkpt lat="46.15962700" lon="6.16349218"><ele>430.807983</ele><time>2007-05-20T11:08:06Z</time></trkpt>
<trkpt lat="46.15953505" lon="6.16364029"><ele>430.807983</ele><time>2007-05-20T11:08:10Z</time></trkpt>
<trkpt lat="46.15954360" lon="6.16383224"><ele>431.288574</ele><time>2007-05-20T11:08:14Z</time></trkpt>
<trkpt lat="46.15972423" lon="6.16484016"><ele>430.327271</ele><time>2007-05-20T11:08:32Z</time></trkpt>
<trkpt lat="46.15986186" lon="6.16593677"><ele>430.327271</ele><time>2007-05-20T11:08:50Z</time></trkpt>
<trkpt lat="46.16003486" lon="6.16741793"><ele>430.327271</ele><time>2007-05-20T11:09:12Z</time></trkpt>
<trkpt lat="46.16020963" lon="6.16896967"><ele>430.327271</ele><time>2007-05-20T11:09:35Z</time></trkpt>
<trkpt lat="46.16028825" lon="6.16962715"><ele>430.327271</ele><time>2007-05-20T11:09:45Z</time></trkpt>
<trkpt lat="46.16041565" lon="6.17071345"><ele>430.327271</ele><time>2007-05-20T11:10:02Z</time></trkpt>
<trkpt lat="46.16054976" lon="6.17184492"><ele>430.327271</ele><time>2007-05-20T11:10:19Z</time></trkpt>
<trkpt lat="46.16069628" lon="6.17314034"><ele>430.807983</ele><time>2007-05-20T11:10:39Z</time></trkpt>
<trkpt lat="46.16073685" lon="6.17354242"><ele>431.288574</ele><time>2007-05-20T11:10:45Z</time></trkpt>
<trkpt lat="46.16086777" lon="6.17464917"><ele>431.288574</ele><time>2007-05-20T11:11:01Z</time></trkpt>
<trkpt lat="46.16094757" lon="6.17529558"><ele>430.807983</ele><time>2007-05-20T11:11:11Z</time></trkpt>
<trkpt lat="46.16108470" lon="6.17649545"><ele>431.288574</ele><time>2007-05-20T11:11:30Z</time></trkpt>
<trkpt lat="46.16137178" lon="6.17731973"><ele>431.288574</ele><time>2007-05-20T11:11:47Z</time></trkpt>
<trkpt lat="46.16157638" lon="6.17757169"><ele>432.25</ele><time>2007-05-20T11:11:54Z</time></trkpt>
<trkpt lat="46.16191794" lon="6.17788794"><ele>432.730713</ele><time>2007-05-20T11:12:04Z</time></trkpt>
<trkpt lat="46.16223377" lon="6.17819622"><ele>431.769165</ele><time>2007-05-20T11:12:13Z</time></trkpt>
<trkpt lat="46.16295252" lon="6.17891556"><ele>430.807983</ele><time>2007-05-20T11:12:31Z</time></trkpt>
<trkpt lat="46.16337799" lon="6.17937396"><ele>431.769165</ele><time>2007-05-20T11:12:45Z</time></trkpt>
<trkpt lat="46.16338989" lon="6.17938863"><ele>430.807983</ele><time>2007-05-20T11:12:59Z</time></trkpt>
<trkpt lat="46.16338385" lon="6.17937849"><ele>431.769165</ele><time>2007-05-20T11:14:09Z</time></trkpt>
<trkpt lat="46.16335569" lon="6.17936055"><ele>430.327271</ele><time>2007-05-20T11:15:35Z</time></trkpt>
<trkpt lat="46.16338863" lon="6.17956172"><ele>429.365967</ele><time>2007-05-20T11:16:16Z</time></trkpt>
<trkpt lat="46.16343574" lon="6.18049135"><ele>428.885376</ele><time>2007-05-20T11:16:29Z</time></trkpt>
<trkpt lat="46.16386363" lon="6.18196892"><ele>428.404663</ele><time>2007-05-20T11:16:49Z</time></trkpt>
<trkpt lat="46.16435733" lon="6.18284952"><ele>428.885376</ele><time>2007-05-20T11:17:04Z</time></trkpt>
<trkpt lat="46.16479813" lon="6.18348244"><ele>428.885376</ele><time>2007-05-20T11:17:17Z</time></trkpt>
<trkpt lat="46.16502427" lon="6.18407889"><ele>430.807983</ele><time>2007-05-20T11:17:30Z</time></trkpt>
<trkpt lat="46.16520432" lon="6.18471818"><ele>432.25</ele><time>2007-05-20T11:17:43Z</time></trkpt>
<trkpt lat="46.16555619" lon="6.18529025"><ele>433.691895</ele><time>2007-05-20T11:17:58Z</time></trkpt>
<trkpt lat="46.16559567" lon="6.18529519"><ele>433.691895</ele><time>2007-05-20T11:17:59Z</time></trkpt>
<trkpt lat="46.16594067" lon="6.18515840"><ele>432.730713</ele><time>2007-05-20T11:18:08Z</time></trkpt>
<trkpt lat="46.16622373" lon="6.18527583"><ele>431.769165</ele><time>2007-05-20T11:18:15Z</time></trkpt>
<trkpt lat="46.16675279" lon="6.18570113"><ele>432.25</ele><time>2007-05-20T11:18:30Z</time></trkpt>
<trkpt lat="46.16690618" lon="6.18584488"><ele>432.25</ele><time>2007-05-20T11:18:35Z</time></trkpt>
<trkpt lat="46.16699276" lon="6.18607328"><ele>431.769165</ele><time>2007-05-20T11:18:39Z</time></trkpt>
<trkpt lat="46.16700718" lon="6.18621762"><ele>431.288574</ele><time>2007-05-20T11:18:41Z</time></trkpt>
<trkpt lat="46.16712143" lon="6.18661433"><ele>430.807983</ele><time>2007-05-20T11:18:47Z</time></trkpt>
<trkpt lat="46.16709033" lon="6.18685280"><ele>430.327271</ele><time>2007-05-20T11:18:51Z</time></trkpt>
<trkpt lat="46.16664768" lon="6.18797765"><ele>428.404663</ele><time>2007-05-20T11:19:07Z</time></trkpt>
<trkpt lat="46.16640863" lon="6.18838870"><ele>426.482056</ele><time>2007-05-20T11:19:13Z</time></trkpt>
<trkpt lat="46.16632774" lon="6.18849993"><ele>427.443359</ele><time>2007-05-20T11:19:15Z</time></trkpt>
<trkpt lat="46.16625717" lon="6.18863286"><ele>428.404663</ele><time>2007-05-20T11:19:23Z</time></trkpt>
<trkpt lat="46.16623714" lon="6.18872783"><ele>427.443359</ele><time>2007-05-20T11:19:32Z</time></trkpt>
<trkpt lat="46.16613018" lon="6.18916017"><ele>427.92395</ele><time>2007-05-20T11:19:40Z</time></trkpt>
<trkpt lat="46.16606648" lon="6.18920744"><ele>428.885376</ele><time>2007-05-20T11:19:42Z</time></trkpt>
<trkpt lat="46.16593136" lon="6.18928623"><ele>430.327271</ele><time>2007-05-20T11:19:46Z</time></trkpt>
<trkpt lat="46.16546759" lon="6.18960056"><ele>431.288574</ele><time>2007-05-20T11:20:00Z</time></trkpt>
<trkpt lat="46.16504867" lon="6.19007229"><ele>430.807983</ele><time>2007-05-20T11:20:11Z</time></trkpt>
<trkpt lat="46.16497566" lon="6.19024814"><ele>431.288574</ele><time>2007-05-20T11:20:14Z</time></trkpt>
<trkpt lat="46.16491078" lon="6.19051217"><ele>431.769165</ele><time>2007-05-20T11:20:18Z</time></trkpt>
<trkpt lat="46.16476016" lon="6.19078928"><ele>432.730713</ele><time>2007-05-20T11:20:23Z</time></trkpt>
<trkpt lat="46.16437702" lon="6.19102657"><ele>433.691895</ele><time>2007-05-20T11:20:33Z</time></trkpt>
<trkpt lat="46.16427745" lon="6.19088450"><ele>433.211304</ele><time>2007-05-20T11:20:37Z</time></trkpt>
<trkpt lat="46.16387143" lon="6.18983734"><ele>434.65332</ele><time>2007-05-20T11:20:55Z</time></trkpt>
<trkpt lat="46.16365870" lon="6.18943904"><ele>436.095215</ele><time>2007-05-20T11:21:02Z</time></trkpt>
<trkpt lat="46.16354696" lon="6.18933108"><ele>437.537109</ele><time>2007-05-20T11:21:05Z</time></trkpt>
<trkpt lat="46.16337002" lon="6.18928716"><ele>438.017822</ele><time>2007-05-20T11:21:09Z</time></trkpt>
<trkpt lat="46.16285403" lon="6.18935086"><ele>438.017822</ele><time>2007-05-20T11:21:22Z</time></trkpt>
<trkpt lat="46.16280349" lon="6.18935396"><ele>437.537109</ele><time>2007-05-20T11:21:23Z</time></trkpt>
<trkpt lat="46.16256117" lon="6.18933728"><ele>437.056519</ele><time>2007-05-20T11:21:28Z</time></trkpt>
<trkpt lat="46.16243033" lon="6.18931607"><ele>437.056519</ele><time>2007-05-20T11:21:36Z</time></trkpt>
<trkpt lat="46.16243946" lon="6.18930685"><ele>437.537109</ele><time>2007-05-20T11:21:39Z</time></trkpt>
<trkpt lat="46.16243946" lon="6.18930685"><ele>437.537109</ele><time>2007-05-20T11:15:01Z</time></trkpt>
</trkseg></trk></gpx>